Observation data for Rotan on 07/18/2019      Previous  Date  Next       Current Mesonet Observations  Soil Data  Daily Summary Page  Observations in Plain Language
KRO1 180500Z 15011KT 29/18 A2996 RMK A01 T02870177  RH  051%=      5-min Rain = 0
KRO1 180501Z 15011KT 29/18 A2996 RMK A01 T02880177  RH  051%=      5-min Rain = 0
KRO1 180502Z 15011KT 29/18 A2996 RMK A01 T02870178  RH  051%=      5-min Rain = 0
KRO1 180503Z 15010KT 29/18 A2996 RMK A01 T02870178  RH  051%=      5-min Rain = 0
KRO1 180504Z 15011KT 29/18 A2996 RMK A01 T02870178  RH  052%=      5-min Rain = 0
KRO1 180505Z 15011KT 29/18 A2996 RMK A01 T02870178  RH  052%=      5-min Rain = 0
KRO1 180506Z 15012KT 29/18 A2996 RMK A01 T02860177  RH  052%=      5-min Rain = 0
KRO1 180507Z 15010KT 29/18 A2996 RMK A01 T02860177  RH  052%=      5-min Rain = 0
KRO1 180508Z 15011KT 29/18 A2996 RMK A01 T02870178  RH  052%=      5-min Rain = 0
KRO1 180509Z 15012KT 29/18 A2996 RMK A01 T02870178  RH  052%=      5-min Rain = 0
KRO1 180510Z 15011KT 29/18 A2996 RMK A01 T02870178  RH  052%=      5-min Rain = 0
KRO1 180511Z 15011KT 29/18 A2996 RMK A01 T02860177  RH  052%=      5-min Rain = 0
KRO1 180512Z 15011KT 29/18 A2995 RMK A01 T02860178  RH  052%=      5-min Rain = 0
KRO1 180513Z 15013KT 29/18 A2995 RMK A01 T02860178  RH  052%=      5-min Rain = 0
KRO1 180514Z 15013KT 29/18 A2995 RMK A01 T02860177  RH  052%=      5-min Rain = 0
KRO1 180515Z 15012KT 29/18 A2995 RMK A01 T02860177  RH  052%=      5-min Rain = 0
KRO1 180516Z 15013KT 29/18 A2995 RMK A01 T02860177  RH  052%=      5-min Rain = 0
KRO1 180517Z 15013KT 29/18 A2995 RMK A01 T02860177  RH  052%=      5-min Rain = 0
KRO1 180518Z 16014KT 29/18 A2995 RMK A01 T02860177  RH  052%=      5-min Rain = 0
KRO1 180519Z 15013KT 29/18 A2995 RMK A01 T02860177  RH  052%=      5-min Rain = 0
KRO1 180520Z 15014KT 29/18 A2995 RMK A01 T02860177  RH  052%=      5-min Rain = 0
KRO1 180521Z 15012KT 29/18 A2995 RMK A01 T02860177  RH  052%=      5-min Rain = 0
KRO1 180522Z 15013KT 29/18 A2995 RMK A01 T02860178  RH  052%=      5-min Rain = 0
KRO1 180523Z 15014KT 29/18 A2995 RMK A01 T02860178  RH  052%=      5-min Rain = 0
KRO1 180524Z 15013KT 29/18 A2995 RMK A01 T02860178  RH  052%=      5-min Rain = 0
KRO1 180525Z 15012KT 29/18 A2995 RMK A01 T02860178  RH  052%=      5-min Rain = 0
KRO1 180526Z 15013KT 29/18 A2995 RMK A01 T02850178  RH  052%=      5-min Rain = 0
KRO1 180527Z 15014KT 29/18 A2995 RMK A01 T02850178  RH  052%=      5-min Rain = 0
KRO1 180528Z 15014KT 29/18 A2995 RMK A01 T02850178  RH  052%=      5-min Rain = 0
KRO1 180529Z 15014KT 29/18 A2995 RMK A01 T02850178  RH  052%=      5-min Rain = 0
KRO1 180530Z 15013KT 29/18 A2995 RMK A01 T02850178  RH  052%=      5-min Rain = 0
KRO1 180531Z 15015KT 29/18 A2995 RMK A01 T02850179  RH  053%=      5-min Rain = 0
KRO1 180532Z 15014KT 29/18 A2995 RMK A01 T02850179  RH  053%=      5-min Rain = 0
KRO1 180533Z 15013KT 29/18 A2995 RMK A01 T02850179  RH  053%=      5-min Rain = 0
KRO1 180534Z 15015KT 29/18 A2995 RMK A01 T02850179  RH  053%=      5-min Rain = 0
KRO1 180535Z 15013KT 29/18 A2995 RMK A01 T02850179  RH  053%=      5-min Rain = 0
KRO1 180536Z 15014G19KT 29/18 A2995 RMK A01 T02850179  RH  053%=      5-min Rain = 0
KRO1 180537Z 15016KT 29/18 A2995 RMK A01 T02850179  RH  053%=      5-min Rain = 0
KRO1 180538Z 15015KT 29/18 A2995 RMK A01 T02850180  RH  053%=      5-min Rain = 0
KRO1 180539Z 16013KT 29/18 A2995 RMK A01 T02850180  RH  053%=      5-min Rain = 0
KRO1 180540Z 16013KT 29/18 A2995 RMK A01 T02850181  RH  053%=      5-min Rain = 0
KRO1 180541Z 16013KT 29/18 A2995 RMK A01 T02850181  RH  053%=      5-min Rain = 0
KRO1 180542Z 15012KT 29/18 A2995 RMK A01 T02850181  RH  053%=      5-min Rain = 0
KRO1 180543Z 16015KT 28/18 A2995 RMK A01 T02840181  RH  054%=      5-min Rain = 0
KRO1 180544Z 16014KT 28/18 A2995 RMK A01 T02840181  RH  054%=      5-min Rain = 0
KRO1 180545Z 16014KT 28/18 A2995 RMK A01 T02840181  RH  054%=      5-min Rain = 0
KRO1 180546Z 16013KT 28/18 A2995 RMK A01 T02840181  RH  054%=      5-min Rain = 0
KRO1 180547Z 16013KT 28/18 A2995 RMK A01 T02840182  RH  054%=      5-min Rain = 0
KRO1 180548Z 16015KT 28/18 A2995 RMK A01 T02840182  RH  054%=      5-min Rain = 0
KRO1 180549Z 16013KT 28/18 A2995 RMK A01 T02840182  RH  054%=      5-min Rain = 0
KRO1 180550Z 16013KT 28/18 A2995 RMK A01 T02840183  RH  054%=      5-min Rain = 0
KRO1 180551Z 16013KT 28/18 A2996 RMK A01 T02840183  RH  054%=      5-min Rain = 0
KRO1 180552Z 16014KT 28/18 A2996 RMK A01 T02830183  RH  054%=      5-min Rain = 0
KRO1 180553Z 16013KT 28/18 A2996 RMK A01 T02830183  RH  054%=      5-min Rain = 0
KRO1 180554Z 16012KT 28/18 A2996 RMK A01 T02830183  RH  055%=      5-min Rain = 0
KRO1 180555Z 16013KT 28/18 A2996 RMK A01 T02830183  RH  055%=      5-min Rain = 0
KRO1 180556Z 16013KT 28/18 A2996 RMK A01 T02830184  RH  055%=      5-min Rain = 0
KRO1 180557Z 16013KT 28/18 A2996 RMK A01 T02830184  RH  055%=      5-min Rain = 0
KRO1 180558Z 16013KT 28/18 A2996 RMK A01 T02830184  RH  055%=      5-min Rain = 0
KRO1 180559Z 16013KT 28/18 A2996 RMK A01 T02830184  RH  055%=      5-min Rain = 0
KRO1 180600Z 16014KT 28/19 A2996 RMK A01 T02830185  RH  055%=      5-min Rain = 0
KRO1 180601Z 16013KT 28/19 A2996 RMK A01 T02830185  RH  055%=      5-min Rain = 0
KRO1 180602Z 16013KT 28/19 A2995 RMK A01 T02830185  RH  055%=      5-min Rain = 0
KRO1 180603Z 16013KT 28/19 A2995 RMK A01 T02830185  RH  055%=      5-min Rain = 0
KRO1 180604Z 16013KT 28/19 A2995 RMK A01 T02820185  RH  056%=      5-min Rain = 0
KRO1 180605Z 16013KT 28/19 A2996 RMK A01 T02820185  RH  056%=      5-min Rain = 0
KRO1 180606Z 16015KT 28/19 A2996 RMK A01 T02820185  RH  056%=      5-min Rain = 0
KRO1 180607Z 16014KT 28/19 A2996 RMK A01 T02820185  RH  056%=      5-min Rain = 0
KRO1 180608Z 16013KT 28/19 A2996 RMK A01 T02820185  RH  056%=      5-min Rain = 0
KRO1 180609Z 16012KT 28/19 A2996 RMK A01 T02820185  RH  056%=      5-min Rain = 0
KRO1 180610Z 16014KT 28/19 A2996 RMK A01 T02820186  RH  056%=      5-min Rain = 0
KRO1 180611Z 16012KT 28/19 A2996 RMK A01 T02820186  RH  056%=      5-min Rain = 0
KRO1 180612Z 16014KT 28/19 A2996 RMK A01 T02810186  RH  056%=      5-min Rain = 0
KRO1 180613Z 16014KT 28/19 A2996 RMK A01 T02810186  RH  056%=      5-min Rain = 0
KRO1 180614Z 16014KT 28/19 A2996 RMK A01 T02810186  RH  056%=      5-min Rain = 0
KRO1 180615Z 16013KT 28/19 A2996 RMK A01 T02810186  RH  056%=      5-min Rain = 0
KRO1 180616Z 16013KT 28/19 A2996 RMK A01 T02810186  RH  056%=      5-min Rain = 0
KRO1 180617Z 16012KT 28/19 A2996 RMK A01 T02810187  RH  057%=      5-min Rain = 0
KRO1 180618Z 16014KT 28/19 A2996 RMK A01 T02800187  RH  057%=      5-min Rain = 0
KRO1 180619Z 16013KT 28/19 A2996 RMK A01 T02800187  RH  057%=      5-min Rain = 0
KRO1 180620Z 16015KT 28/19 A2996 RMK A01 T02800187  RH  057%=      5-min Rain = 0
KRO1 180621Z 16014KT 28/19 A2996 RMK A01 T02800187  RH  057%=      5-min Rain = 0
KRO1 180622Z 16013KT 28/19 A2996 RMK A01 T02800186  RH  057%=      5-min Rain = 0
KRO1 180623Z 16013KT 28/19 A2996 RMK A01 T02800187  RH  057%=      5-min Rain = 0
KRO1 180624Z 16013KT 28/19 A2996 RMK A01 T02800187  RH  057%=      5-min Rain = 0
KRO1 180625Z 16013KT 28/19 A2996 RMK A01 T02800187  RH  057%=      5-min Rain = 0
KRO1 180626Z 16014KT 28/19 A2996 RMK A01 T02800187  RH  057%=      5-min Rain = 0
KRO1 180627Z 15013KT 28/19 A2996 RMK A01 T02800187  RH  057%=      5-min Rain = 0
KRO1 180628Z 16014KT 28/19 A2996 RMK A01 T02800188  RH  057%=      5-min Rain = 0
KRO1 180629Z 16015KT 28/19 A2996 RMK A01 T02800188  RH  057%=      5-min Rain = 0
KRO1 180630Z 15015KT 28/19 A2996 RMK A01 T02800188  RH  057%=      5-min Rain = 0
KRO1 180631Z 16015KT 28/19 A2996 RMK A01 T02800188  RH  057%=      5-min Rain = 0
KRO1 180632Z 15013KT 28/19 A2996 RMK A01 T02800188  RH  057%=      5-min Rain = 0
KRO1 180633Z 16014KT 28/19 A2996 RMK A01 T02800188  RH  058%=      5-min Rain = 0
KRO1 180634Z 15014KT 28/19 A2996 RMK A01 T02790188  RH  058%=      5-min Rain = 0
KRO1 180635Z 15014KT 28/19 A2996 RMK A01 T02790188  RH  058%=      5-min Rain = 0
KRO1 180636Z 16015KT 28/19 A2996 RMK A01 T02790188  RH  058%=      5-min Rain = 0
KRO1 180637Z 15014KT 28/19 A2995 RMK A01 T02790189  RH  058%=      5-min Rain = 0
KRO1 180638Z 16014KT 28/19 A2995 RMK A01 T02790189  RH  058%=      5-min Rain = 0
KRO1 180639Z 16013KT 28/19 A2995 RMK A01 T02790189  RH  058%=      5-min Rain = 0
KRO1 180640Z 15012KT 28/19 A2995 RMK A01 T02790189  RH  058%=      5-min Rain = 0
KRO1 180641Z 16013KT 28/19 A2995 RMK A01 T02780189  RH  058%=      5-min Rain = 0
KRO1 180642Z 16015KT 28/19 A2995 RMK A01 T02780189  RH  058%=      5-min Rain = 0
KRO1 180643Z 16012KT 28/19 A2996 RMK A01 T02780189  RH  058%=      5-min Rain = 0
KRO1 180644Z 16013KT 28/19 A2996 RMK A01 T02780190  RH  058%=      5-min Rain = 0
KRO1 180645Z 16013KT 28/19 A2996 RMK A01 T02780190  RH  059%=      5-min Rain = 0
KRO1 180646Z 16013KT 28/19 A2996 RMK A01 T02780190  RH  058%=      5-min Rain = 0
KRO1 180647Z 16013KT 28/19 A2996 RMK A01 T02780189  RH  058%=      5-min Rain = 0
KRO1 180648Z 16013KT 28/19 A2996 RMK A01 T02780189  RH  059%=      5-min Rain = 0
KRO1 180649Z 16013KT 28/19 A2996 RMK A01 T02780190  RH  059%=      5-min Rain = 0
KRO1 180650Z 16013KT 28/19 A2996 RMK A01 T02780190  RH  059%=      5-min Rain = 0
KRO1 180651Z 16014KT 28/19 A2996 RMK A01 T02780190  RH  059%=      5-min Rain = 0
KRO1 180652Z 16012KT 28/19 A2996 RMK A01 T02780190  RH  059%=      5-min Rain = 0
KRO1 180653Z 16012KT 28/19 A2996 RMK A01 T02780190  RH  059%=      5-min Rain = 0
KRO1 180654Z 16012KT 28/19 A2996 RMK A01 T02770190  RH  059%=      5-min Rain = 0
KRO1 180655Z 16013KT 28/19 A2996 RMK A01 T02770190  RH  059%=      5-min Rain = 0
KRO1 180656Z 16014KT 28/19 A2996 RMK A01 T02770190  RH  059%=      5-min Rain = 0
KRO1 180657Z 16014KT 28/19 A2996 RMK A01 T02780190  RH  059%=      5-min Rain = 0
KRO1 180658Z 16014KT 28/19 A2996 RMK A01 T02770190  RH  059%=      5-min Rain = 0
KRO1 180659Z 16014KT 28/19 A2996 RMK A01 T02770190  RH  059%=      5-min Rain = 0
KRO1 180700Z 16013KT 28/19 A2996 RMK A01 T02780190  RH  059%=      5-min Rain = 0
KRO1 180701Z 16014KT 28/19 A2996 RMK A01 T02780191  RH  059%=      5-min Rain = 0
KRO1 180702Z 16013KT 28/19 A2996 RMK A01 T02780191  RH  059%=      5-min Rain = 0
KRO1 180703Z 16013KT 28/19 A2996 RMK A01 T02770191  RH  059%=      5-min Rain = 0
KRO1 180704Z 16013KT 28/19 A2996 RMK A01 T02770191  RH  059%=      5-min Rain = 0
KRO1 180705Z 16014KT 28/19 A2996 RMK A01 T02770191  RH  059%=      5-min Rain = 0
KRO1 180706Z 16012KT 28/19 A2996 RMK A01 T02770191  RH  059%=      5-min Rain = 0
KRO1 180707Z 16015KT 28/19 A2996 RMK A01 T02770191  RH  059%=      5-min Rain = 0
KRO1 180708Z 16014KT 28/19 A2996 RMK A01 T02770191  RH  059%=      5-min Rain = 0
KRO1 180709Z 16014KT 28/19 A2996 RMK A01 T02770191  RH  060%=      5-min Rain = 0
KRO1 180710Z 16013KT 28/19 A2996 RMK A01 T02770191  RH  060%=      5-min Rain = 0
KRO1 180711Z 17014KT 28/19 A2995 RMK A01 T02770191  RH  060%=      5-min Rain = 0
KRO1 180712Z 16013KT 28/19 A2995 RMK A01 T02770192  RH  060%=      5-min Rain = 0
KRO1 180713Z 17013KT 28/19 A2995 RMK A01 T02770192  RH  060%=      5-min Rain = 0
KRO1 180714Z 16013KT 28/19 A2995 RMK A01 T02760191  RH  060%=      5-min Rain = 0
KRO1 180715Z 17013KT 28/19 A2995 RMK A01 T02760191  RH  060%=      5-min Rain = 0
KRO1 180716Z 17013KT 28/19 A2996 RMK A01 T02760191  RH  060%=      5-min Rain = 0
KRO1 180717Z 17013KT 28/19 A2996 RMK A01 T02760192  RH  060%=      5-min Rain = 0
KRO1 180718Z 17012KT 28/19 A2996 RMK A01 T02750192  RH  060%=      5-min Rain = 0
KRO1 180719Z 17012KT 28/19 A2996 RMK A01 T02750192  RH  060%=      5-min Rain = 0
KRO1 180720Z 17013KT 28/19 A2996 RMK A01 T02750192  RH  060%=      5-min Rain = 0
KRO1 180721Z 16012KT 28/19 A2996 RMK A01 T02750192  RH  061%=      5-min Rain = 0
KRO1 180722Z 17011KT 28/19 A2996 RMK A01 T02750192  RH  061%=      5-min Rain = 0
KRO1 180723Z 17012KT 27/19 A2996 RMK A01 T02740192  RH  061%=      5-min Rain = 0
KRO1 180724Z 16013KT 27/19 A2995 RMK A01 T02740192  RH  061%=      5-min Rain = 0
KRO1 180725Z 16012KT 27/19 A2995 RMK A01 T02740192  RH  061%=      5-min Rain = 0
KRO1 180726Z 16013KT 27/19 A2995 RMK A01 T02730192  RH  061%=      5-min Rain = 0
KRO1 180727Z 16012KT 27/19 A2995 RMK A01 T02740192  RH  061%=      5-min Rain = 0
KRO1 180728Z 16013KT 27/19 A2995 RMK A01 T02740192  RH  061%=      5-min Rain = 0
KRO1 180729Z 16012KT 27/19 A2995 RMK A01 T02740192  RH  061%=      5-min Rain = 0
KRO1 180730Z 16013KT 27/19 A2995 RMK A01 T02740192  RH  061%=      5-min Rain = 0
KRO1 180731Z 17013KT 27/19 A2995 RMK A01 T02740192  RH  061%=      5-min Rain = 0
KRO1 180732Z 17012KT 27/19 A2995 RMK A01 T02740192  RH  061%=      5-min Rain = 0
KRO1 180733Z 17012KT 27/19 A2995 RMK A01 T02740193  RH  061%=      5-min Rain = 0
KRO1 180734Z 17013KT 27/19 A2995 RMK A01 T02730192  RH  061%=      5-min Rain = 0
KRO1 180735Z 16012KT 27/19 A2995 RMK A01 T02730193  RH  061%=      5-min Rain = 0
KRO1 180736Z 16013KT 27/19 A2995 RMK A01 T02730192  RH  061%=      5-min Rain = 0
KRO1 180737Z 16012KT 27/19 A2995 RMK A01 T02730193  RH  061%=      5-min Rain = 0
KRO1 180738Z 16012KT 27/19 A2995 RMK A01 T02730193  RH  062%=      5-min Rain = 0
KRO1 180739Z 16013KT 27/19 A2995 RMK A01 T02730193  RH  062%=      5-min Rain = 0
KRO1 180740Z 16014KT 27/19 A2995 RMK A01 T02730193  RH  062%=      5-min Rain = 0
KRO1 180741Z 16012KT 27/19 A2995 RMK A01 T02730193  RH  062%=      5-min Rain = 0
KRO1 180742Z 16013KT 27/19 A2995 RMK A01 T02730193  RH  062%=      5-min Rain = 0
KRO1 180743Z 16014KT 27/19 A2995 RMK A01 T02730192  RH  062%=      5-min Rain = 0
KRO1 180744Z 16013KT 27/19 A2995 RMK A01 T02730192  RH  061%=      5-min Rain = 0
KRO1 180745Z 16013KT 27/19 A2995 RMK A01 T02730192  RH  061%=      5-min Rain = 0
KRO1 180746Z 16013KT 27/19 A2995 RMK A01 T02730192  RH  061%=      5-min Rain = 0
KRO1 180747Z 16014KT 27/19 A2995 RMK A01 T02730192  RH  061%=      5-min Rain = 0
KRO1 180748Z 16014KT 27/19 A2995 RMK A01 T02730192  RH  061%=      5-min Rain = 0
KRO1 180749Z 16014KT 27/19 A2995 RMK A01 T02730192  RH  061%=      5-min Rain = 0
KRO1 180750Z 16013KT 27/19 A2995 RMK A01 T02730192  RH  061%=      5-min Rain = 0
KRO1 180751Z 16014KT 27/19 A2995 RMK A01 T02730193  RH  061%=      5-min Rain = 0
KRO1 180752Z 16015KT 27/19 A2995 RMK A01 T02730193  RH  061%=      5-min Rain = 0
KRO1 180753Z 16016KT 27/19 A2995 RMK A01 T02730192  RH  061%=      5-min Rain = 0
KRO1 180754Z 16013KT 27/19 A2995 RMK A01 T02730192  RH  061%=      5-min Rain = 0
KRO1 180755Z 16014KT 27/19 A2995 RMK A01 T02740192  RH  061%=      5-min Rain = 0
KRO1 180756Z 16012KT 27/19 A2996 RMK A01 T02740192  RH  061%=      5-min Rain = 0
KRO1 180757Z 16015KT 27/19 A2995 RMK A01 T02740193  RH  061%=      5-min Rain = 0
KRO1 180758Z 16014KT 27/19 A2995 RMK A01 T02730193  RH  061%=      5-min Rain = 0
KRO1 180759Z 16013KT 27/19 A2995 RMK A01 T02730193  RH  061%=      5-min Rain = 0
KRO1 180800Z 16014KT 27/19 A2995 RMK A01 T02730193  RH  062%=      5-min Rain = 0
KRO1 180801Z 16015KT 27/19 A2995 RMK A01 T02730193  RH  062%=      5-min Rain = 0
KRO1 180802Z 16014KT 27/19 A2995 RMK A01 T02730193  RH  062%=      5-min Rain = 0
KRO1 180803Z 16014KT 27/19 A2995 RMK A01 T02730193  RH  062%=      5-min Rain = 0
KRO1 180804Z 16014KT 27/19 A2995 RMK A01 T02730193  RH  062%=      5-min Rain = 0
KRO1 180805Z 16013KT 27/19 A2995 RMK A01 T02730194  RH  062%=      5-min Rain = 0
KRO1 180806Z 17014KT 27/19 A2995 RMK A01 T02720193  RH  062%=      5-min Rain = 0
KRO1 180807Z 17015KT 27/19 A2995 RMK A01 T02720194  RH  062%=      5-min Rain = 0
KRO1 180808Z 17015KT 27/19 A2995 RMK A01 T02720193  RH  062%=      5-min Rain = 0
KRO1 180809Z 16013KT 27/19 A2995 RMK A01 T02730194  RH  062%=      5-min Rain = 0
KRO1 180810Z 16014KT 27/19 A2995 RMK A01 T02720194  RH  062%=      5-min Rain = 0
KRO1 180811Z 16013KT 27/19 A2995 RMK A01 T02720194  RH  062%=      5-min Rain = 0
KRO1 180812Z 16012KT 27/19 A2995 RMK A01 T02720194  RH  062%=      5-min Rain = 0
KRO1 180813Z 16013KT 27/19 A2995 RMK A01 T02720194  RH  062%=      5-min Rain = 0
KRO1 180814Z 16014KT 27/19 A2995 RMK A01 T02710194  RH  063%=      5-min Rain = 0
KRO1 180815Z 16015KT 27/19 A2995 RMK A01 T02710194  RH  063%=      5-min Rain = 0
KRO1 180816Z 16013KT 27/19 A2995 RMK A01 T02710194  RH  063%=      5-min Rain = 0
KRO1 180817Z 16013KT 27/19 A2995 RMK A01 T02710194  RH  063%=      5-min Rain = 0
KRO1 180818Z 17013KT 27/19 A2995 RMK A01 T02710194  RH  063%=      5-min Rain = 0
KRO1 180819Z 16013KT 27/20 A2995 RMK A01 T02720195  RH  063%=      5-min Rain = 0
KRO1 180820Z 17013KT 27/19 A2995 RMK A01 T02710194  RH  063%=      5-min Rain = 0
KRO1 180821Z 16013KT 27/19 A2995 RMK A01 T02710194  RH  063%=      5-min Rain = 0
KRO1 180822Z 17013KT 27/20 A2995 RMK A01 T02710195  RH  063%=      5-min Rain = 0
KRO1 180823Z 17015KT 27/20 A2995 RMK A01 T02710195  RH  063%=      5-min Rain = 0
KRO1 180824Z 16014KT 27/20 A2995 RMK A01 T02710195  RH  063%=      5-min Rain = 0
KRO1 180825Z 17014KT 27/20 A2995 RMK A01 T02710195  RH  063%=      5-min Rain = 0
KRO1 180826Z 16014KT 27/20 A2995 RMK A01 T02710195  RH  063%=      5-min Rain = 0
KRO1 180827Z 17015KT 27/20 A2995 RMK A01 T02710195  RH  063%=      5-min Rain = 0
KRO1 180828Z 16013KT 27/20 A2995 RMK A01 T02710195  RH  063%=      5-min Rain = 0
KRO1 180829Z 17013KT 27/20 A2995 RMK A01 T02710195  RH  063%=      5-min Rain = 0
KRO1 180830Z 16013KT 27/20 A2995 RMK A01 T02700195  RH  063%=      5-min Rain = 0
KRO1 180831Z 16014KT 27/20 A2995 RMK A01 T02710196  RH  064%=      5-min Rain = 0
KRO1 180832Z 16013KT 27/20 A2995 RMK A01 T02700196  RH  064%=      5-min Rain = 0
KRO1 180833Z 16013KT 27/20 A2995 RMK A01 T02700196  RH  064%=      5-min Rain = 0
KRO1 180834Z 16013KT 27/20 A2995 RMK A01 T02700196  RH  064%=      5-min Rain = 0
KRO1 180835Z 16013KT 27/20 A2995 RMK A01 T02700196  RH  064%=      5-min Rain = 0
KRO1 180836Z 16012KT 27/20 A2995 RMK A01 T02700196  RH  064%=      5-min Rain = 0
KRO1 180837Z 16013KT 27/20 A2995 RMK A01 T02700196  RH  064%=      5-min Rain = 0
KRO1 180838Z 16014KT 27/20 A2995 RMK A01 T02690196  RH  064%=      5-min Rain = 0
KRO1 180839Z 16016KT 27/20 A2995 RMK A01 T02690196  RH  064%=      5-min Rain = 0
KRO1 180840Z 16015KT 27/20 A2995 RMK A01 T02700197  RH  064%=      5-min Rain = 0
KRO1 180841Z 16014KT 27/20 A2995 RMK A01 T02700196  RH  064%=      5-min Rain = 0
KRO1 180842Z 16013KT 27/20 A2995 RMK A01 T02700197  RH  064%=      5-min Rain = 0
KRO1 180843Z 16013KT 27/20 A2995 RMK A01 T02700197  RH  064%=      5-min Rain = 0
KRO1 180844Z 16012KT 27/20 A2995 RMK A01 T02700197  RH  064%=      5-min Rain = 0
KRO1 180845Z 16013KT 27/20 A2995 RMK A01 T02690197  RH  065%=      5-min Rain = 0
KRO1 180846Z 16012KT 27/20 A2995 RMK A01 T02690197  RH  065%=      5-min Rain = 0
KRO1 180847Z 16013KT 27/20 A2995 RMK A01 T02690197  RH  065%=      5-min Rain = 0
KRO1 180848Z 16015KT 27/20 A2995 RMK A01 T02680197  RH  065%=      5-min Rain = 0
KRO1 180849Z 16014KT 27/20 A2995 RMK A01 T02680197  RH  065%=      5-min Rain = 0
KRO1 180850Z 16012KT 27/20 A2995 RMK A01 T02690198  RH  065%=      5-min Rain = 0
KRO1 180851Z 16012KT 27/20 A2995 RMK A01 T02690198  RH  065%=      5-min Rain = 0
KRO1 180852Z 16012KT 27/20 A2995 RMK A01 T02690198  RH  065%=      5-min Rain = 0
KRO1 180853Z 16012KT 27/20 A2995 RMK A01 T02680198  RH  065%=      5-min Rain = 0
KRO1 180854Z 16013KT 27/20 A2995 RMK A01 T02680198  RH  066%=      5-min Rain = 0
KRO1 180855Z 16013KT 27/20 A2995 RMK A01 T02680199  RH  066%=      5-min Rain = 0
KRO1 180856Z 16013KT 27/20 A2995 RMK A01 T02680199  RH  066%=      5-min Rain = 0
KRO1 180857Z 16011KT 27/20 A2995 RMK A01 T02680199  RH  066%=      5-min Rain = 0
KRO1 180858Z 16013KT 27/20 A2995 RMK A01 T02670199  RH  066%=      5-min Rain = 0
KRO1 180859Z 16012KT 27/20 A2995 RMK A01 T02670199  RH  066%=      5-min Rain = 0
KRO1 180900Z 16011KT 27/20 A2995 RMK A01 T02670199  RH  066%=      5-min Rain = 0
KRO1 180901Z 16012KT 27/20 A2995 RMK A01 T02660199  RH  067%=      5-min Rain = 0
KRO1 180902Z 16013KT 27/20 A2995 RMK A01 T02660199  RH  067%=      5-min Rain = 0
KRO1 180903Z 16013KT 27/20 A2995 RMK A01 T02660200  RH  067%=      5-min Rain = 0
KRO1 180904Z 16012KT 27/20 A2995 RMK A01 T02660200  RH  067%=      5-min Rain = 0
KRO1 180905Z 16014KT 27/20 A2996 RMK A01 T02660200  RH  067%=      5-min Rain = 0
KRO1 180906Z 16011KT 27/20 A2996 RMK A01 T02660200  RH  067%=      5-min Rain = 0
KRO1 180907Z 16013KT 27/20 A2996 RMK A01 T02660200  RH  067%=      5-min Rain = 0
KRO1 180908Z 16013KT 27/20 A2996 RMK A01 T02660200  RH  067%=      5-min Rain = 0
KRO1 180909Z 17013KT 27/20 A2996 RMK A01 T02660200  RH  067%=      5-min Rain = 0
KRO1 180910Z 16013KT 27/20 A2996 RMK A01 T02660200  RH  067%=      5-min Rain = 0
KRO1 180911Z 16012KT 27/20 A2996 RMK A01 T02660200  RH  067%=      5-min Rain = 0
KRO1 180912Z 16012KT 27/20 A2996 RMK A01 T02650200  RH  068%=      5-min Rain = 0
KRO1 180913Z 16012KT 27/20 A2995 RMK A01 T02650200  RH  068%=      5-min Rain = 0
KRO1 180914Z 16013KT 26/20 A2995 RMK A01 T02640200  RH  068%=      5-min Rain = 0
KRO1 180915Z 16012KT 27/20 A2995 RMK A01 T02650201  RH  068%=      5-min Rain = 0
KRO1 180916Z 16013KT 27/20 A2996 RMK A01 T02650201  RH  068%=      5-min Rain = 0
KRO1 180917Z 16013KT 26/20 A2996 RMK A01 T02640201  RH  068%=      5-min Rain = 0
KRO1 180918Z 16013KT 26/20 A2996 RMK A01 T02640201  RH  068%=      5-min Rain = 0
KRO1 180919Z 16013KT 26/20 A2996 RMK A01 T02640201  RH  068%=      5-min Rain = 0
KRO1 180920Z 17012KT 27/20 A2996 RMK A01 T02650201  RH  068%=      5-min Rain = 0
KRO1 180921Z 16013KT 26/20 A2996 RMK A01 T02640201  RH  068%=      5-min Rain = 0
KRO1 180922Z 17011KT 26/20 A2996 RMK A01 T02640201  RH  068%=      5-min Rain = 0
KRO1 180923Z 16013KT 26/20 A2996 RMK A01 T02640201  RH  068%=      5-min Rain = 0
KRO1 180924Z 16013KT 26/20 A2996 RMK A01 T02640201  RH  068%=      5-min Rain = 0
KRO1 180925Z 16011KT 26/20 A2996 RMK A01 T02640201  RH  068%=      5-min Rain = 0
KRO1 180926Z 16011KT 26/20 A2996 RMK A01 T02640201  RH  068%=      5-min Rain = 0
KRO1 180927Z 16011KT 26/20 A2996 RMK A01 T02640202  RH  069%=      5-min Rain = 0
KRO1 180928Z 16011KT 26/20 A2996 RMK A01 T02630201  RH  069%=      5-min Rain = 0
KRO1 180929Z 16012KT 26/20 A2996 RMK A01 T02630201  RH  069%=      5-min Rain = 0
KRO1 180930Z 16012KT 26/20 A2996 RMK A01 T02630202  RH  069%=      5-min Rain = 0
KRO1 180931Z 16013KT 26/20 A2996 RMK A01 T02630201  RH  069%=      5-min Rain = 0
KRO1 180932Z 17012KT 26/20 A2996 RMK A01 T02630202  RH  069%=      5-min Rain = 0
KRO1 180933Z 16011KT 26/20 A2996 RMK A01 T02630201  RH  069%=      5-min Rain = 0
KRO1 180934Z 17011KT 26/20 A2996 RMK A01 T02630202  RH  069%=      5-min Rain = 0
KRO1 180935Z 17017KT 26/20 A2996 RMK A01 T02620202  RH  069%=      5-min Rain = 0
KRO1 180936Z 16015KT 26/20 A2996 RMK A01 T02630202  RH  069%=      5-min Rain = 0
KRO1 180937Z 16013KT 26/20 A2996 RMK A01 T02630202  RH  069%=      5-min Rain = 0
KRO1 180938Z 16012KT 26/20 A2996 RMK A01 T02630202  RH  069%=      5-min Rain = 0
KRO1 180939Z 17012KT 26/20 A2996 RMK A01 T02630203  RH  069%=      5-min Rain = 0
KRO1 180940Z 17015KT 26/20 A2996 RMK A01 T02630203  RH  070%=      5-min Rain = 0
KRO1 180941Z 17012KT 26/20 A2996 RMK A01 T02630203  RH  070%=      5-min Rain = 0
KRO1 180942Z 17012KT 26/20 A2996 RMK A01 T02630203  RH  070%=      5-min Rain = 0
KRO1 180943Z 17013KT 26/20 A2996 RMK A01 T02630203  RH  070%=      5-min Rain = 0
KRO1 180944Z 17012KT 26/20 A2996 RMK A01 T02630203  RH  070%=      5-min Rain = 0
KRO1 180945Z 17011KT 26/20 A2996 RMK A01 T02630203  RH  070%=      5-min Rain = 0
KRO1 180946Z 17015KT 26/20 A2996 RMK A01 T02620204  RH  070%=      5-min Rain = 0
KRO1 180947Z 17013KT 26/20 A2996 RMK A01 T02620204  RH  070%=      5-min Rain = 0
KRO1 180948Z 17013KT 26/20 A2996 RMK A01 T02620203  RH  070%=      5-min Rain = 0
KRO1 180949Z 17012KT 26/20 A2996 RMK A01 T02620203  RH  070%=      5-min Rain = 0
KRO1 180950Z 17011KT 26/20 A2996 RMK A01 T02620204  RH  070%=      5-min Rain = 0
KRO1 180951Z 17012KT 26/20 A2996 RMK A01 T02620204  RH  070%=      5-min Rain = 0
KRO1 180952Z 17011KT 26/20 A2996 RMK A01 T02610204  RH  071%=      5-min Rain = 0
KRO1 180953Z 17011KT 26/20 A2996 RMK A01 T02610204  RH  071%=      5-min Rain = 0
KRO1 180954Z 17010KT 26/20 A2996 RMK A01 T02600204  RH  071%=      5-min Rain = 0
KRO1 180955Z 17014KT 26/20 A2996 RMK A01 T02600204  RH  071%=      5-min Rain = 0
KRO1 180956Z 17011KT 26/20 A2996 RMK A01 T02600204  RH  071%=      5-min Rain = 0
KRO1 180957Z 17012KT 26/20 A2996 RMK A01 T02600204  RH  071%=      5-min Rain = 0
KRO1 180958Z 17015KT 26/21 A2996 RMK A01 T02600205  RH  071%=      5-min Rain = 0
KRO1 180959Z 17015KT 26/21 A2996 RMK A01 T02610205  RH  071%=      5-min Rain = 0
KRO1 181000Z 17013KT 26/21 A2996 RMK A01 T02610205  RH  071%=      5-min Rain = 0
KRO1 181001Z 17014KT 26/21 A2996 RMK A01 T02610205  RH  071%=      5-min Rain = 0
KRO1 181002Z 16015KT 26/21 A2996 RMK A01 T02610205  RH  071%=      5-min Rain = 0
KRO1 181003Z 17014KT 26/21 A2996 RMK A01 T02610205  RH  071%=      5-min Rain = 0
KRO1 181004Z 17015KT 26/21 A2996 RMK A01 T02610205  RH  072%=      5-min Rain = 0
KRO1 181005Z 16013KT 26/21 A2996 RMK A01 T02610206  RH  072%=      5-min Rain = 0
KRO1 181006Z 17016KT 26/21 A2997 RMK A01 T02600205  RH  072%=      5-min Rain = 0
KRO1 181007Z 16014KT 26/21 A2997 RMK A01 T02610206  RH  072%=      5-min Rain = 0
KRO1 181008Z 17014KT 26/21 A2997 RMK A01 T02600205  RH  072%=      5-min Rain = 0
KRO1 181009Z 17013KT 26/21 A2997 RMK A01 T02600206  RH  072%=      5-min Rain = 0
KRO1 181010Z 17013KT 26/21 A2997 RMK A01 T02600206  RH  072%=      5-min Rain = 0
KRO1 181011Z 17014KT 26/21 A2997 RMK A01 T02600206  RH  072%=      5-min Rain = 0
KRO1 181012Z 17014KT 26/21 A2997 RMK A01 T02600206  RH  072%=      5-min Rain = 0
KRO1 181013Z 17014KT 26/21 A2997 RMK A01 T02600206  RH  072%=      5-min Rain = 0
KRO1 181014Z 17014KT 26/21 A2997 RMK A01 T02590205  RH  072%=      5-min Rain = 0
KRO1 181015Z 17016KT 26/21 A2997 RMK A01 T02590206  RH  072%=      5-min Rain = 0
KRO1 181016Z 17017KT 26/21 A2997 RMK A01 T02590206  RH  072%=      5-min Rain = 0
KRO1 181017Z 17018KT 26/21 A2997 RMK A01 T02600206  RH  072%=      5-min Rain = 0
KRO1 181018Z 17016KT 26/21 A2997 RMK A01 T02610206  RH  072%=      5-min Rain = 0
KRO1 181019Z 17015KT 26/21 A2997 RMK A01 T02600206  RH  072%=      5-min Rain = 0
KRO1 181020Z 17014KT 26/21 A2997 RMK A01 T02600206  RH  072%=      5-min Rain = 0
KRO1 181021Z 17014KT 26/21 A2997 RMK A01 T02600206  RH  072%=      5-min Rain = 0
KRO1 181022Z 17015KT 26/21 A2997 RMK A01 T02600206  RH  072%=      5-min Rain = 0
KRO1 181023Z 17014KT 26/21 A2997 RMK A01 T02600206  RH  072%=      5-min Rain = 0
KRO1 181024Z 17013KT 26/21 A2997 RMK A01 T02590206  RH  073%=      5-min Rain = 0
KRO1 181025Z 17016KT 26/21 A2997 RMK A01 T02580206  RH  073%=      5-min Rain = 0
KRO1 181026Z 16017KT 26/21 A2997 RMK A01 T02590206  RH  073%=      5-min Rain = 0
KRO1 181027Z 16014KT 26/21 A2997 RMK A01 T02580206  RH  073%=      5-min Rain = 0
KRO1 181028Z 16017KT 26/21 A2997 RMK A01 T02590206  RH  073%=      5-min Rain = 0
KRO1 181029Z 16015KT 26/21 A2997 RMK A01 T02590206  RH  073%=      5-min Rain = 0
KRO1 181030Z 16015KT 26/21 A2997 RMK A01 T02590206  RH  073%=      5-min Rain = 0
KRO1 181031Z 17017KT 26/21 A2997 RMK A01 T02580206  RH  073%=      5-min Rain = 0
KRO1 181032Z 17017KT 26/21 A2997 RMK A01 T02590207  RH  073%=      5-min Rain = 0
KRO1 181033Z 17015KT 26/21 A2997 RMK A01 T02580206  RH  073%=      5-min Rain = 0
KRO1 181034Z 17017KT 26/21 A2997 RMK A01 T02580206  RH  073%=      5-min Rain = 0
KRO1 181035Z 17013KT 26/21 A2997 RMK A01 T02580206  RH  073%=      5-min Rain = 0
KRO1 181036Z 17015KT 26/21 A2997 RMK A01 T02570206  RH  073%=      5-min Rain = 0
KRO1 181037Z 16014KT 26/21 A2997 RMK A01 T02570207  RH  074%=      5-min Rain = 0
KRO1 181038Z 16015KT 26/21 A2997 RMK A01 T02570206  RH  074%=      5-min Rain = 0
KRO1 181039Z 16015KT 26/21 A2997 RMK A01 T02570206  RH  074%=      5-min Rain = 0
KRO1 181040Z 17016KT 26/21 A2997 RMK A01 T02570206  RH  074%=      5-min Rain = 0
KRO1 181041Z 17015KT 26/21 A2997 RMK A01 T02570207  RH  074%=      5-min Rain = 0
KRO1 181042Z 17013KT 26/21 A2997 RMK A01 T02570207  RH  074%=      5-min Rain = 0
KRO1 181043Z 17015KT 26/21 A2997 RMK A01 T02560207  RH  074%=      5-min Rain = 0
KRO1 181044Z 18015KT 26/21 A2997 RMK A01 T02560207  RH  074%=      5-min Rain = 0
KRO1 181045Z 17013KT 26/21 A2997 RMK A01 T02560207  RH  074%=      5-min Rain = 0
KRO1 181046Z 17014KT 26/21 A2997 RMK A01 T02560207  RH  074%=      5-min Rain = 0
KRO1 181047Z 17013KT 26/21 A2997 RMK A01 T02560207  RH  074%=      5-min Rain = 0
KRO1 181048Z 17013KT 26/21 A2997 RMK A01 T02560207  RH  074%=      5-min Rain = 0
KRO1 181049Z 17012KT 26/21 A2998 RMK A01 T02560207  RH  074%=      5-min Rain = 0
KRO1 181050Z 18015KT 26/21 A2998 RMK A01 T02550207  RH  074%=      5-min Rain = 0
KRO1 181051Z 18013KT 26/21 A2998 RMK A01 T02550207  RH  075%=      5-min Rain = 0
KRO1 181052Z 18013KT 26/21 A2998 RMK A01 T02550207  RH  075%=      5-min Rain = 0
KRO1 181053Z 18014KT 25/21 A2998 RMK A01 T02540206  RH  075%=      5-min Rain = 0
KRO1 181054Z 18014KT 25/21 A2998 RMK A01 T02540207  RH  075%=      5-min Rain = 0
KRO1 181055Z 18013KT 25/21 A2998 RMK A01 T02540207  RH  075%=      5-min Rain = 0
KRO1 181056Z 18010KT 26/21 A2998 RMK A01 T02550207  RH  075%=      5-min Rain = 0
KRO1 181057Z 18012KT 25/21 A2998 RMK A01 T02540207  RH  075%=      5-min Rain = 0
KRO1 181058Z 18012KT 25/21 A2998 RMK A01 T02540207  RH  075%=      5-min Rain = 0
KRO1 181059Z 18013KT 25/21 A2998 RMK A01 T02540207  RH  075%=      5-min Rain = 0
KRO1 181100Z 18013KT 25/21 A2998 RMK A01 T02540207  RH  075%=      5-min Rain = 0
KRO1 181101Z 18011KT 25/21 A2998 RMK A01 T02540207  RH  075%=      5-min Rain = 0
KRO1 181102Z 17012KT 25/21 A2998 RMK A01 T02530207  RH  075%=      5-min Rain = 0
KRO1 181103Z 18012KT 25/21 A2998 RMK A01 T02530207  RH  076%=      5-min Rain = 0
KRO1 181104Z 17011KT 25/21 A2998 RMK A01 T02530207  RH  076%=      5-min Rain = 0
KRO1 181105Z 17011KT 25/21 A2998 RMK A01 T02530207  RH  076%=      5-min Rain = 0
KRO1 181106Z 17012KT 25/21 A2998 RMK A01 T02530207  RH  076%=      5-min Rain = 0
KRO1 181107Z 17013KT 25/21 A2998 RMK A01 T02530207  RH  076%=      5-min Rain = 0
KRO1 181108Z 17011KT 25/21 A2998 RMK A01 T02530207  RH  076%=      5-min Rain = 0
KRO1 181109Z 17012KT 25/21 A2998 RMK A01 T02520207  RH  076%=      5-min Rain = 0
KRO1 181110Z 18013KT 25/21 A2998 RMK A01 T02530207  RH  076%=      5-min Rain = 0
KRO1 181111Z 17012KT 25/21 A2998 RMK A01 T02520207  RH  076%=      5-min Rain = 0
KRO1 181112Z 18016KT 25/21 A2998 RMK A01 T02520207  RH  076%=      5-min Rain = 0
KRO1 181113Z 18013KT 25/21 A2998 RMK A01 T02520207  RH  076%=      5-min Rain = 0
KRO1 181114Z 18011KT 25/21 A2998 RMK A01 T02530207  RH  076%=      5-min Rain = 0
KRO1 181115Z 17012KT 25/21 A2998 RMK A01 T02530207  RH  076%=      5-min Rain = 0
KRO1 181116Z 17014KT 25/21 A2998 RMK A01 T02530207  RH  076%=      5-min Rain = 0
KRO1 181117Z 17013KT 25/21 A2998 RMK A01 T02520207  RH  076%=      5-min Rain = 0
KRO1 181118Z 17013KT 25/21 A2998 RMK A01 T02530207  RH  076%=      5-min Rain = 0
KRO1 181119Z 17012KT 25/21 A2998 RMK A01 T02530207  RH  076%=      5-min Rain = 0
KRO1 181120Z 18012KT 25/21 A2998 RMK A01 T02530207  RH  076%=      5-min Rain = 0
KRO1 181121Z 17013KT 25/21 A2998 RMK A01 T02530208  RH  076%=      5-min Rain = 0
KRO1 181122Z 17012KT 25/21 A2998 RMK A01 T02530208  RH  076%=      5-min Rain = 0
KRO1 181123Z 18013KT 25/21 A2998 RMK A01 T02520207  RH  076%=      5-min Rain = 0
KRO1 181124Z 18014KT 25/21 A2998 RMK A01 T02520208  RH  076%=      5-min Rain = 0
KRO1 181125Z 17014KT 25/21 A2998 RMK A01 T02530208  RH  076%=      5-min Rain = 0
KRO1 181126Z 18015KT 25/21 A2998 RMK A01 T02520207  RH  076%=      5-min Rain = 0
KRO1 181127Z 18014KT 25/21 A2998 RMK A01 T02530207  RH  076%=      5-min Rain = 0
KRO1 181128Z 17014KT 25/21 A2998 RMK A01 T02530207  RH  076%=      5-min Rain = 0
KRO1 181129Z 18015KT 25/21 A2998 RMK A01 T02530207  RH  076%=      5-min Rain = 0
KRO1 181130Z 18014KT 25/21 A2998 RMK A01 T02530207  RH  076%=      5-min Rain = 0
KRO1 181131Z 18013KT 25/21 A2998 RMK A01 T02520207  RH  076%=      5-min Rain = 0
KRO1 181132Z 18016KT 25/21 A2998 RMK A01 T02530207  RH  076%=      5-min Rain = 0
KRO1 181133Z 18015KT 25/21 A2998 RMK A01 T02530207  RH  076%=      5-min Rain = 0
KRO1 181134Z 18013KT 25/21 A2998 RMK A01 T02530207  RH  076%=      5-min Rain = 0
KRO1 181135Z 17013KT 25/21 A2998 RMK A01 T02520207  RH  076%=      5-min Rain = 0
KRO1 181136Z 18014KT 25/21 A2998 RMK A01 T02520207  RH  076%=      5-min Rain = 0
KRO1 181137Z 18015KT 25/21 A2998 RMK A01 T02520208  RH  076%=      5-min Rain = 0
KRO1 181138Z 17013KT 25/21 A2998 RMK A01 T02520207  RH  076%=      5-min Rain = 0
KRO1 181139Z 18013KT 25/21 A2998 RMK A01 T02520207  RH  076%=      5-min Rain = 0
KRO1 181140Z 18014KT 25/21 A2998 RMK A01 T02520207  RH  076%=      5-min Rain = 0
KRO1 181141Z 17016KT 25/21 A2998 RMK A01 T02520208  RH  076%=      5-min Rain = 0
KRO1 181142Z 17014KT 25/21 A2998 RMK A01 T02520208  RH  076%=      5-min Rain = 0
KRO1 181143Z 17014KT 25/21 A2998 RMK A01 T02520207  RH  076%=      5-min Rain = 0
KRO1 181144Z 17014KT 25/21 A2998 RMK A01 T02520208  RH  076%=      5-min Rain = 0
KRO1 181145Z 18016KT 25/21 A2998 RMK A01 T02520208  RH  076%=      5-min Rain = 0
KRO1 181146Z 18015KT 25/21 A2998 RMK A01 T02520208  RH  076%=      5-min Rain = 0
KRO1 181147Z 17016KT 25/21 A2998 RMK A01 T02520207  RH  076%=      5-min Rain = 0
KRO1 181148Z 17015KT 25/21 A2998 RMK A01 T02520207  RH  076%=      5-min Rain = 0
KRO1 181149Z 18014KT 25/21 A2998 RMK A01 T02520207  RH  076%=      5-min Rain = 0
KRO1 181150Z 18014KT 25/21 A2998 RMK A01 T02520208  RH  076%=      5-min Rain = 0
KRO1 181151Z 18015KT 25/21 A2998 RMK A01 T02520208  RH  076%=      5-min Rain = 0
KRO1 181152Z 17015KT 25/21 A2998 RMK A01 T02520207  RH  076%=      5-min Rain = 0
KRO1 181153Z 17015KT 25/21 A2997 RMK A01 T02510207  RH  076%=      5-min Rain = 0
KRO1 181154Z 17016G21KT 25/21 A2998 RMK A01 T02520208  RH  076%=      5-min Rain = 0
KRO1 181155Z 17015KT 25/21 A2998 RMK A01 T02520207  RH  076%=      5-min Rain = 0
KRO1 181156Z 18016KT 25/21 A2998 RMK A01 T02520208  RH  076%=      5-min Rain = 0
KRO1 181157Z 17015KT 25/21 A2998 RMK A01 T02520208  RH  076%=      5-min Rain = 0
KRO1 181158Z 17015KT 25/21 A2998 RMK A01 T02520208  RH  076%=      5-min Rain = 0
KRO1 181159Z 17017G22KT 25/21 A2998 RMK A01 T02520208  RH  076%=      5-min Rain = 0
KRO1 181200Z 17017KT 25/21 A2998 RMK A01 T02520207  RH  076%=      5-min Rain = 0
KRO1 181201Z 17015KT 25/21 A2998 RMK A01 T02530207  RH  076%=      5-min Rain = 0
KRO1 181202Z 18015KT 25/21 A2998 RMK A01 T02520207  RH  076%=      5-min Rain = 0
KRO1 181203Z 17015KT 25/21 A2998 RMK A01 T02530207  RH  076%=      5-min Rain = 0
KRO1 181204Z 17015KT 25/21 A2998 RMK A01 T02530208  RH  076%=      5-min Rain = 0
KRO1 181205Z 17014KT 25/21 A2998 RMK A01 T02530208  RH  076%=      5-min Rain = 0
KRO1 181206Z 18015KT 25/21 A2998 RMK A01 T02530208  RH  076%=      5-min Rain = 0
KRO1 181207Z 17015KT 25/21 A2998 RMK A01 T02530208  RH  076%=      5-min Rain = 0
KRO1 181208Z 17014KT 25/21 A2998 RMK A01 T02530208  RH  076%=      5-min Rain = 0
KRO1 181209Z 17017KT 25/21 A2998 RMK A01 T02530208  RH  076%=      5-min Rain = 0
KRO1 181210Z 18016KT 25/21 A2998 RMK A01 T02530207  RH  076%=      5-min Rain = 0
KRO1 181211Z 17015KT 25/21 A2998 RMK A01 T02530207  RH  076%=      5-min Rain = 0
KRO1 181212Z 17016KT 25/21 A2998 RMK A01 T02530207  RH  076%=      5-min Rain = 0
KRO1 181213Z 18016KT 25/21 A2998 RMK A01 T02530207  RH  076%=      5-min Rain = 0
KRO1 181214Z 17015KT 25/21 A2998 RMK A01 T02530207  RH  076%=      5-min Rain = 0
KRO1 181215Z 18016KT 25/21 A2998 RMK A01 T02530207  RH  076%=      5-min Rain = 0
KRO1 181216Z 18016KT 25/21 A2998 RMK A01 T02530207  RH  076%=      5-min Rain = 0
KRO1 181217Z 18015KT 25/21 A2998 RMK A01 T02540207  RH  076%=      5-min Rain = 0
KRO1 181218Z 18016KT 25/21 A2998 RMK A01 T02530207  RH  075%=      5-min Rain = 0
KRO1 181219Z 18016KT 25/21 A2998 RMK A01 T02530207  RH  075%=      5-min Rain = 0
KRO1 181220Z 17014KT 25/21 A2998 RMK A01 T02530207  RH  075%=      5-min Rain = 0
KRO1 181221Z 18014KT 25/21 A2998 RMK A01 T02530207  RH  076%=      5-min Rain = 0
KRO1 181222Z 18015KT 25/21 A2998 RMK A01 T02540208  RH  076%=      5-min Rain = 0
KRO1 181223Z 18016KT 25/21 A2998 RMK A01 T02540207  RH  076%=      5-min Rain = 0
KRO1 181224Z 18017KT 25/21 A2998 RMK A01 T02540207  RH  075%=      5-min Rain = 0
KRO1 181225Z 18014KT 25/21 A2998 RMK A01 T02540207  RH  075%=      5-min Rain = 0
KRO1 181226Z 18015KT 25/21 A2998 RMK A01 T02540207  RH  075%=      5-min Rain = 0
KRO1 181227Z 18014KT 25/21 A2998 RMK A01 T02540207  RH  075%=      5-min Rain = 0
KRO1 181228Z 18014KT 25/21 A2998 RMK A01 T02540208  RH  075%=      5-min Rain = 0
KRO1 181229Z 17018KT 25/21 A2998 RMK A01 T02540208  RH  075%=      5-min Rain = 0
KRO1 181230Z 18016KT 25/21 A2998 RMK A01 T02540207  RH  075%=      5-min Rain = 0
KRO1 181231Z 18015G20KT 26/21 A2998 RMK A01 T02550207  RH  075%=      5-min Rain = 0
KRO1 181232Z 17015KT 26/21 A2998 RMK A01 T02550208  RH  075%=      5-min Rain = 0
KRO1 181233Z 18015KT 26/21 A2998 RMK A01 T02550207  RH  075%=      5-min Rain = 0
KRO1 181234Z 18014KT 26/21 A2998 RMK A01 T02550208  RH  075%=      5-min Rain = 0
KRO1 181235Z 18017KT 26/21 A2998 RMK A01 T02550207  RH  075%=      5-min Rain = 0
KRO1 181236Z 18017KT 26/21 A2998 RMK A01 T02560207  RH  075%=      5-min Rain = 0
KRO1 181237Z 17014KT 26/21 A2998 RMK A01 T02560207  RH  074%=      5-min Rain = 0
KRO1 181238Z 18013KT 26/21 A2998 RMK A01 T02560208  RH  075%=      5-min Rain = 0
KRO1 181239Z 18016KT 26/21 A2998 RMK A01 T02560208  RH  075%=      5-min Rain = 0
KRO1 181240Z 18017KT 26/21 A2998 RMK A01 T02560208  RH  074%=      5-min Rain = 0
KRO1 181241Z 18014KT 26/21 A2998 RMK A01 T02560208  RH  074%=      5-min Rain = 0
KRO1 181242Z 18015G20KT 26/21 A2998 RMK A01 T02570208  RH  074%=      5-min Rain = 0
KRO1 181243Z 18016KT 26/21 A2998 RMK A01 T02570208  RH  074%=      5-min Rain = 0
KRO1 181244Z 18015KT 26/21 A2998 RMK A01 T02570208  RH  074%=      5-min Rain = 0
KRO1 181245Z 18016KT 26/21 A2998 RMK A01 T02570208  RH  074%=      5-min Rain = 0
KRO1 181246Z 18013KT 26/21 A2998 RMK A01 T02580208  RH  074%=      5-min Rain = 0
KRO1 181247Z 18017KT 26/21 A2998 RMK A01 T02580208  RH  074%=      5-min Rain = 0
KRO1 181248Z 18017KT 26/21 A2998 RMK A01 T02580208  RH  074%=      5-min Rain = 0
KRO1 181249Z 17014KT 26/21 A2998 RMK A01 T02580208  RH  074%=      5-min Rain = 0
KRO1 181250Z 17015KT 26/21 A2998 RMK A01 T02590208  RH  074%=      5-min Rain = 0
KRO1 181251Z 18017KT 26/21 A2998 RMK A01 T02590208  RH  073%=      5-min Rain = 0
KRO1 181252Z 18015KT 26/21 A2998 RMK A01 T02590208  RH  073%=      5-min Rain = 0
KRO1 181253Z 18016KT 26/21 A2998 RMK A01 T02590208  RH  074%=      5-min Rain = 0
KRO1 181254Z 18018KT 26/21 A2998 RMK A01 T02590208  RH  073%=      5-min Rain = 0
KRO1 181255Z 18016KT 26/21 A2998 RMK A01 T02590207  RH  073%=      5-min Rain = 0
KRO1 181256Z 18016KT 26/21 A2998 RMK A01 T02590208  RH  073%=      5-min Rain = 0
KRO1 181257Z 17015KT 26/21 A2998 RMK A01 T02600208  RH  073%=      5-min Rain = 0
KRO1 181258Z 18017KT 26/21 A2998 RMK A01 T02600208  RH  073%=      5-min Rain = 0
KRO1 181259Z 18015KT 26/21 A2998 RMK A01 T02600208  RH  073%=      5-min Rain = 0
KRO1 181300Z 18017KT 26/21 A2998 RMK A01 T02610209  RH  073%=      5-min Rain = 0
KRO1 181301Z 18016KT 26/21 A2998 RMK A01 T02610208  RH  073%=      5-min Rain = 0
KRO1 181302Z 18017KT 26/21 A2998 RMK A01 T02610208  RH  073%=      5-min Rain = 0
KRO1 181303Z 18016KT 26/21 A2998 RMK A01 T02610208  RH  072%=      5-min Rain = 0
KRO1 181304Z 18015KT 26/21 A2998 RMK A01 T02620208  RH  072%=      5-min Rain = 0
KRO1 181305Z 18015KT 26/21 A2998 RMK A01 T02620208  RH  072%=      5-min Rain = 0
KRO1 181306Z 18018KT 26/21 A2998 RMK A01 T02620208  RH  072%=      5-min Rain = 0
KRO1 181307Z 18016KT 26/21 A2998 RMK A01 T02630208  RH  072%=      5-min Rain = 0
KRO1 181308Z 18018KT 26/21 A2998 RMK A01 T02630208  RH  072%=      5-min Rain = 0
KRO1 181309Z 18019KT 26/21 A2998 RMK A01 T02630208  RH  072%=      5-min Rain = 0
KRO1 181310Z 18019G24KT 26/21 A2998 RMK A01 T02630207  RH  071%=      5-min Rain = 0
KRO1 181311Z 18018KT 26/21 A2998 RMK A01 T02640208  RH  071%=      5-min Rain = 0
KRO1 181312Z 18021KT 26/21 A2998 RMK A01 T02640207  RH  071%=      5-min Rain = 0
KRO1 181313Z 18020KT 26/21 A2998 RMK A01 T02640207  RH  071%=      5-min Rain = 0
KRO1 181314Z 18018KT 26/21 A2998 RMK A01 T02640207  RH  071%=      5-min Rain = 0
KRO1 181315Z 18020KT 26/21 A2998 RMK A01 T02640207  RH  071%=      5-min Rain = 0
KRO1 181316Z 17020KT 27/21 A2998 RMK A01 T02650207  RH  071%=      5-min Rain = 0
KRO1 181317Z 18021G26KT 27/21 A2998 RMK A01 T02650207  RH  070%=      5-min Rain = 0
KRO1 181318Z 18019KT 27/21 A2998 RMK A01 T02650207  RH  070%=      5-min Rain = 0
KRO1 181319Z 18019KT 27/21 A2998 RMK A01 T02650207  RH  070%=      5-min Rain = 0
KRO1 181320Z 19017KT 27/21 A2998 RMK A01 T02660207  RH  070%=      5-min Rain = 0
KRO1 181321Z 18015KT 27/21 A2998 RMK A01 T02670208  RH  070%=      5-min Rain = 0
KRO1 181322Z 18019KT 27/21 A2998 RMK A01 T02680208  RH  070%=      5-min Rain = 0
KRO1 181323Z 18020KT 27/21 A2998 RMK A01 T02680207  RH  069%=      5-min Rain = 0
KRO1 181324Z 19019KT 27/21 A2998 RMK A01 T02680208  RH  069%=      5-min Rain = 0
KRO1 181325Z 19021KT 27/21 A2998 RMK A01 T02680207  RH  069%=      5-min Rain = 0
KRO1 181326Z 19017G22KT 27/21 A2998 RMK A01 T02680208  RH  069%=      5-min Rain = 0
KRO1 181327Z 20018KT 27/21 A2998 RMK A01 T02680208  RH  070%=      5-min Rain = 0
KRO1 181328Z 19015KT 27/21 A2998 RMK A01 T02680208  RH  069%=      5-min Rain = 0
KRO1 181329Z 19020KT 27/21 A2998 RMK A01 T02690208  RH  069%=      5-min Rain = 0
KRO1 181330Z 19021KT 27/21 A2998 RMK A01 T02690207  RH  069%=      5-min Rain = 0
KRO1 181331Z 19022KT 27/21 A2998 RMK A01 T02690207  RH  069%=      5-min Rain = 0
KRO1 181332Z 19021KT 27/21 A2998 RMK A01 T02690207  RH  069%=      5-min Rain = 0
KRO1 181333Z 19021KT 27/21 A2998 RMK A01 T02690207  RH  069%=      5-min Rain = 0
KRO1 181334Z 19021KT 27/21 A2998 RMK A01 T02690207  RH  069%=      5-min Rain = 0
KRO1 181335Z 19020KT 27/21 A2998 RMK A01 T02690206  RH  069%=      5-min Rain = 0
KRO1 181336Z 19015KT 27/21 A2998 RMK A01 T02700208  RH  069%=      5-min Rain = 0
KRO1 181337Z 18015KT 27/21 A2998 RMK A01 T02710209  RH  069%=      5-min Rain = 0
KRO1 181338Z 19015KT 27/21 A2998 RMK A01 T02730209  RH  068%=      5-min Rain = 0
KRO1 181339Z 19018KT 27/21 A2998 RMK A01 T02740208  RH  067%=      5-min Rain = 0
KRO1 181340Z 19023G28KT 27/21 A2998 RMK A01 T02740207  RH  067%=      5-min Rain = 0
KRO1 181341Z 19018KT 27/21 A2998 RMK A01 T02740207  RH  067%=      5-min Rain = 0
KRO1 181342Z 19022G28KT 27/21 A2998 RMK A01 T02740207  RH  067%=      5-min Rain = 0
KRO1 181343Z 19019KT 27/21 A2998 RMK A01 T02730207  RH  067%=      5-min Rain = 0
KRO1 181344Z 19019KT 27/21 A2998 RMK A01 T02730207  RH  067%=      5-min Rain = 0
KRO1 181345Z 19019KT 27/21 A2998 RMK A01 T02730207  RH  067%=      5-min Rain = 0
KRO1 181346Z 19020KT 27/21 A2998 RMK A01 T02740207  RH  067%=      5-min Rain = 0
KRO1 181347Z 20019G24KT 27/21 A2998 RMK A01 T02740207  RH  067%=      5-min Rain = 0
KRO1 181348Z 19017KT 28/21 A2998 RMK A01 T02750208  RH  067%=      5-min Rain = 0
KRO1 181349Z 19020G25KT 28/21 A2998 RMK A01 T02760208  RH  066%=      5-min Rain = 0
KRO1 181350Z 19022KT 28/21 A2998 RMK A01 T02760206  RH  066%=      5-min Rain = 0
KRO1 181351Z 18020KT 28/21 A2997 RMK A01 T02760207  RH  066%=      5-min Rain = 0
KRO1 181352Z 18020KT 28/21 A2997 RMK A01 T02760207  RH  066%=      5-min Rain = 0
KRO1 181353Z 19020G26KT 28/21 A2997 RMK A01 T02770207  RH  066%=      5-min Rain = 0
KRO1 181354Z 19025KT 28/21 A2997 RMK A01 T02770206  RH  065%=      5-min Rain = 0
KRO1 181355Z 18023KT 28/21 A2997 RMK A01 T02760206  RH  065%=      5-min Rain = 0
KRO1 181356Z 19021G27KT 28/21 A2997 RMK A01 T02760206  RH  066%=      5-min Rain = 0
KRO1 181357Z 19025KT 28/21 A2997 RMK A01 T02760206  RH  065%=      5-min Rain = 0
KRO1 181358Z 19026KT 28/21 A2997 RMK A01 T02760205  RH  065%=      5-min Rain = 0
KRO1 181359Z 19025KT 28/21 A2997 RMK A01 T02770206  RH  065%=      5-min Rain = 0
KRO1 181400Z 19025KT 28/21 A2997 RMK A01 T02760206  RH  065%=      5-min Rain = 0
KRO1 181401Z 19024KT 28/21 A2997 RMK A01 T02760206  RH  065%=      5-min Rain = 0
KRO1 181402Z 19023G29KT 28/21 A2997 RMK A01 T02760207  RH  066%=      5-min Rain = 0
KRO1 181403Z 19022G27KT 28/21 A2997 RMK A01 T02770206  RH  065%=      5-min Rain = 0
KRO1 181404Z 19024G30KT 28/21 A2997 RMK A01 T02780206  RH  065%=      5-min Rain = 0
KRO1 181405Z 19025G30KT 28/21 A2997 RMK A01 T02780205  RH  065%=      5-min Rain = 0
KRO1 181406Z 19023KT 28/21 A2997 RMK A01 T02780206  RH  065%=      5-min Rain = 0
KRO1 181407Z 19025KT 28/21 A2997 RMK A01 T02800206  RH  064%=      5-min Rain = 0
KRO1 181408Z 19024KT 28/21 A2997 RMK A01 T02790206  RH  064%=      5-min Rain = 0
KRO1 181409Z 19026KT 28/21 A2997 RMK A01 T02790206  RH  065%=      5-min Rain = 0
KRO1 181410Z 19023G28KT 28/21 A2997 RMK A01 T02790206  RH  064%=      5-min Rain = 0
KRO1 181411Z 19025KT 28/21 A2997 RMK A01 T02790206  RH  064%=      5-min Rain = 0
KRO1 181412Z 19020G25KT 28/21 A2997 RMK A01 T02800206  RH  064%=      5-min Rain = 0
KRO1 181413Z 18024G33KT 28/21 A2997 RMK A01 T02810207  RH  064%=      5-min Rain = 0
KRO1 181414Z 19028KT 28/20 A2997 RMK A01 T02820204  RH  063%=      5-min Rain = 0
KRO1 181415Z 19027KT 28/21 A2997 RMK A01 T02820205  RH  063%=      5-min Rain = 0
KRO1 181416Z 18026KT 28/21 A2997 RMK A01 T02810205  RH  063%=      5-min Rain = 0
KRO1 181417Z 18023G28KT 28/21 A2997 RMK A01 T02810205  RH  064%=      5-min Rain = 0
KRO1 181418Z 18024G29KT 28/21 A2997 RMK A01 T02830207  RH  063%=      5-min Rain = 0
KRO1 181419Z 19023G28KT 28/21 A2997 RMK A01 T02840206  RH  063%=      5-min Rain = 0
KRO1 181420Z 19020G25KT 28/21 A2997 RMK A01 T02840207  RH  063%=      5-min Rain = 0
KRO1 181421Z 19024KT 29/21 A2997 RMK A01 T02860207  RH  062%=      5-min Rain = 0
KRO1 181422Z 19024G29KT 29/21 A2997 RMK A01 T02860206  RH  062%=      5-min Rain = 0
KRO1 181423Z 19023KT 29/21 A2997 RMK A01 T02850206  RH  062%=      5-min Rain = 0
KRO1 181424Z 19024KT 28/21 A2997 RMK A01 T02840207  RH  063%=      5-min Rain = 0
KRO1 181425Z 19022KT 29/21 A2997 RMK A01 T02850206  RH  062%=      5-min Rain = 0
KRO1 181426Z 19026G31KT 29/21 A2998 RMK A01 T02850207  RH  062%=      5-min Rain = 0
KRO1 181427Z 19024KT 29/21 A2997 RMK A01 T02860206  RH  062%=      5-min Rain = 0
KRO1 181428Z 20025KT 29/21 A2997 RMK A01 T02860206  RH  062%=      5-min Rain = 0
KRO1 181429Z 20026KT 29/21 A2997 RMK A01 T02860206  RH  062%=      5-min Rain = 0
KRO1 181430Z 19024KT 29/21 A2997 RMK A01 T02860206  RH  062%=      5-min Rain = 0
KRO1 181431Z 19024G30KT 29/21 A2997 RMK A01 T02860206  RH  062%=      5-min Rain = 0
KRO1 181432Z 20027KT 29/21 A2997 RMK A01 T02860206  RH  062%=      5-min Rain = 0
KRO1 181433Z 20026KT 29/21 A2997 RMK A01 T02850206  RH  062%=      5-min Rain = 0
KRO1 181434Z 19025KT 29/21 A2997 RMK A01 T02850206  RH  062%=      5-min Rain = 0
KRO1 181435Z 19023KT 29/21 A2997 RMK A01 T02860206  RH  062%=      5-min Rain = 0
KRO1 181436Z 19021KT 29/21 A2997 RMK A01 T02870206  RH  062%=      5-min Rain = 0
KRO1 181437Z 18024G29KT 29/21 A2997 RMK A01 T02890207  RH  061%=      5-min Rain = 0
KRO1 181438Z 18026KT 29/21 A2997 RMK A01 T02900206  RH  060%=      5-min Rain = 0
KRO1 181439Z 19026KT 29/21 A2997 RMK A01 T02890205  RH  061%=      5-min Rain = 0
KRO1 181440Z 19026KT 29/21 A2997 RMK A01 T02890206  RH  061%=      5-min Rain = 0
KRO1 181441Z 20024KT 29/21 A2997 RMK A01 T02880206  RH  061%=      5-min Rain = 0
KRO1 181442Z 19026KT 29/21 A2997 RMK A01 T02890205  RH  061%=      5-min Rain = 0
KRO1 181443Z 20024KT 29/21 A2997 RMK A01 T02890206  RH  061%=      5-min Rain = 0
KRO1 181444Z 19023KT 29/21 A2997 RMK A01 T02900206  RH  060%=      5-min Rain = 0
KRO1 181445Z 20024KT 29/21 A2997 RMK A01 T02900206  RH  060%=      5-min Rain = 0
KRO1 181446Z 19024KT 29/21 A2997 RMK A01 T02910206  RH  060%=      5-min Rain = 0
KRO1 181447Z 19026KT 29/21 A2997 RMK A01 T02910205  RH  060%=      5-min Rain = 0
KRO1 181448Z 19024KT 29/21 A2997 RMK A01 T02910206  RH  060%=      5-min Rain = 0
KRO1 181449Z 19027KT 29/21 A2997 RMK A01 T02920206  RH  060%=      5-min Rain = 0
KRO1 181450Z 19026G32KT 29/21 A2997 RMK A01 T02910205  RH  060%=      5-min Rain = 0
KRO1 181451Z 19025KT 29/21 A2997 RMK A01 T02910205  RH  060%=      5-min Rain = 0
KRO1 181452Z 18025KT 29/21 A2997 RMK A01 T02910206  RH  060%=      5-min Rain = 0
KRO1 181453Z 19024KT 29/21 A2997 RMK A01 T02920205  RH  059%=      5-min Rain = 0
KRO1 181454Z 19026G31KT 29/21 A2997 RMK A01 T02930205  RH  059%=      5-min Rain = 0
KRO1 181455Z 19025KT 29/21 A2997 RMK A01 T02930205  RH  059%=      5-min Rain = 0
KRO1 181456Z 19023KT 29/21 A2997 RMK A01 T02940206  RH  059%=      5-min Rain = 0
KRO1 181457Z 19025G30KT 29/21 A2997 RMK A01 T02940206  RH  059%=      5-min Rain = 0
KRO1 181458Z 19023KT 30/21 A2997 RMK A01 T02950206  RH  059%=      5-min Rain = 0
KRO1 181459Z 20026KT 30/21 A2997 RMK A01 T02960206  RH  058%=      5-min Rain = 0
KRO1 181500Z 20026G31KT 30/21 A2997 RMK A01 T02950205  RH  059%=      5-min Rain = 0
KRO1 181501Z 19026KT 30/21 A2997 RMK A01 T02950206  RH  059%=      5-min Rain = 0
KRO1 181502Z 19022KT 29/21 A2997 RMK A01 T02940206  RH  059%=      5-min Rain = 0
KRO1 181503Z 20022KT 30/21 A2997 RMK A01 T02950207  RH  059%=      5-min Rain = 0
KRO1 181504Z 19022KT 30/21 A2997 RMK A01 T02960207  RH  059%=      5-min Rain = 0
KRO1 181505Z 20021KT 30/21 A2997 RMK A01 T02980207  RH  058%=      5-min Rain = 0
KRO1 181506Z 19020KT 30/21 A2997 RMK A01 T03000208  RH  058%=      5-min Rain = 0
KRO1 181507Z 19021KT 30/21 A2997 RMK A01 T03010208  RH  058%=      5-min Rain = 0
KRO1 181508Z 19018KT 30/21 A2997 RMK A01 T03020208  RH  057%=      5-min Rain = 0
KRO1 181509Z 19021G27KT 30/21 A2997 RMK A01 T03020208  RH  057%=      5-min Rain = 0
KRO1 181510Z 18023KT 30/21 A2997 RMK A01 T03020206  RH  056%=      5-min Rain = 0
KRO1 181511Z 18027KT 30/21 A2997 RMK A01 T03020206  RH  056%=      5-min Rain = 0
KRO1 181512Z 19026G31KT 30/21 A2997 RMK A01 T03010205  RH  057%=      5-min Rain = 0
KRO1 181513Z 19024KT 30/21 A2997 RMK A01 T02990205  RH  057%=      5-min Rain = 0
KRO1 181514Z 18026KT 30/21 A2997 RMK A01 T02990205  RH  057%=      5-min Rain = 0
KRO1 181515Z 19023KT 30/21 A2997 RMK A01 T02990206  RH  057%=      5-min Rain = 0
KRO1 181516Z 19026KT 30/21 A2997 RMK A01 T02980205  RH  057%=      5-min Rain = 0
KRO1 181517Z 19023KT 30/21 A2997 RMK A01 T02980205  RH  058%=      5-min Rain = 0
KRO1 181518Z 19025G30KT 30/21 A2997 RMK A01 T02980206  RH  058%=      5-min Rain = 0
KRO1 181519Z 18026KT 30/20 A2996 RMK A01 T02980204  RH  057%=      5-min Rain = 0
KRO1 181520Z 18025KT 30/20 A2996 RMK A01 T02980204  RH  057%=      5-min Rain = 0
KRO1 181521Z 18024KT 30/21 A2996 RMK A01 T02990205  RH  057%=      5-min Rain = 0
KRO1 181522Z 19023KT 30/21 A2996 RMK A01 T03010205  RH  057%=      5-min Rain = 0
KRO1 181523Z 19023KT 30/21 A2996 RMK A01 T03020206  RH  056%=      5-min Rain = 0
KRO1 181524Z 20024KT 30/21 A2996 RMK A01 T03040206  RH  056%=      5-min Rain = 0
KRO1 181525Z 19020G25KT 30/21 A2996 RMK A01 T03040207  RH  056%=      5-min Rain = 0
KRO1 181526Z 19020KT 31/21 A2996 RMK A01 T03050207  RH  056%=      5-min Rain = 0
KRO1 181527Z 18021G26KT 31/21 A2996 RMK A01 T03060206  RH  055%=      5-min Rain = 0
KRO1 181528Z 18025KT 31/21 A2996 RMK A01 T03060206  RH  055%=      5-min Rain = 0
KRO1 181529Z 19024KT 31/21 A2996 RMK A01 T03060206  RH  055%=      5-min Rain = 0
KRO1 181530Z 20023KT 31/21 A2996 RMK A01 T03050206  RH  055%=      5-min Rain = 0
KRO1 181531Z 18024KT 31/21 A2996 RMK A01 T03050205  RH  055%=      5-min Rain = 0
KRO1 181532Z 18023KT 30/21 A2996 RMK A01 T03040205  RH  055%=      5-min Rain = 0
KRO1 181533Z 18024KT 30/21 A2996 RMK A01 T03040205  RH  055%=      5-min Rain = 0
KRO1 181534Z 19021G26KT 30/21 A2996 RMK A01 T03040205  RH  055%=      5-min Rain = 0
KRO1 181535Z 19023KT 31/21 A2996 RMK A01 T03050206  RH  055%=      5-min Rain = 0
KRO1 181536Z 18025KT 31/21 A2996 RMK A01 T03070205  RH  054%=      5-min Rain = 0
KRO1 181537Z 19023KT 31/21 A2996 RMK A01 T03070205  RH  054%=      5-min Rain = 0
KRO1 181538Z 19020KT 31/21 A2996 RMK A01 T03060205  RH  055%=      5-min Rain = 0
KRO1 181539Z 19020KT 31/21 A2996 RMK A01 T03070206  RH  055%=      5-min Rain = 0
KRO1 181540Z 19017KT 31/21 A2996 RMK A01 T03090207  RH  055%=      5-min Rain = 0
KRO1 181541Z 18021G27KT 31/21 A2996 RMK A01 T03120208  RH  054%=      5-min Rain = 0
KRO1 181542Z 19022KT 31/21 A2996 RMK A01 T03120207  RH  053%=      5-min Rain = 0
KRO1 181543Z 18024KT 31/21 A2996 RMK A01 T03120206  RH  053%=      5-min Rain = 0
KRO1 181544Z 19020G25KT 31/21 A2996 RMK A01 T03110207  RH  054%=      5-min Rain = 0
KRO1 181545Z 19019G24KT 31/21 A2996 RMK A01 T03120206  RH  053%=      5-min Rain = 0
KRO1 181546Z 19017G22KT 31/21 A2996 RMK A01 T03140207  RH  053%=      5-min Rain = 0
KRO1 181547Z 20023KT 32/21 A2996 RMK A01 T03170206  RH  052%=      5-min Rain = 0
KRO1 181548Z 19023KT 32/21 A2996 RMK A01 T03160205  RH  052%=      5-min Rain = 0
KRO1 181549Z 19022KT 31/20 A2996 RMK A01 T03140204  RH  052%=      5-min Rain = 0
KRO1 181550Z 20022KT 31/21 A2996 RMK A01 T03140205  RH  052%=      5-min Rain = 0
KRO1 181551Z 20022KT 32/21 A2996 RMK A01 T03150205  RH  052%=      5-min Rain = 0
KRO1 181552Z 21021G26KT 32/20 A2996 RMK A01 T03150204  RH  052%=      5-min Rain = 0
KRO1 181553Z 20020KT 32/21 A2996 RMK A01 T03150205  RH  052%=      5-min Rain = 0
KRO1 181554Z 19016KT 32/21 A2997 RMK A01 T03160206  RH  052%=      5-min Rain = 0
KRO1 181555Z 19018KT 32/21 A2996 RMK A01 T03200209  RH  052%=      5-min Rain = 0
KRO1 181556Z 18019G24KT 32/21 A2997 RMK A01 T03230207  RH  051%=      5-min Rain = 0
KRO1 181557Z 19022KT 32/21 A2996 RMK A01 T03220207  RH  051%=      5-min Rain = 0
KRO1 181558Z 18021KT 32/21 A2996 RMK A01 T03190205  RH  051%=      5-min Rain = 0
KRO1 181559Z 19022KT 32/20 A2996 RMK A01 T03170204  RH  051%=      5-min Rain = 0
KRO1 181600Z 18021KT 32/21 A2996 RMK A01 T03160205  RH  052%=      5-min Rain = 0
KRO1 181601Z 18022KT 32/21 A2996 RMK A01 T03150205  RH  052%=      5-min Rain = 0
KRO1 181602Z 18021G26KT 32/20 A2996 RMK A01 T03150204  RH  052%=      5-min Rain = 0
KRO1 181603Z 19024KT 32/20 A2996 RMK A01 T03160204  RH  052%=      5-min Rain = 0
KRO1 181604Z 18018G23KT 32/21 A2996 RMK A01 T03150205  RH  052%=      5-min Rain = 0
KRO1 181605Z 18019KT 31/21 A2996 RMK A01 T03140205  RH  052%=      5-min Rain = 0
KRO1 181606Z 18021KT 32/21 A2996 RMK A01 T03160205  RH  052%=      5-min Rain = 0
KRO1 181607Z 18021KT 32/21 A2996 RMK A01 T03160205  RH  052%=      5-min Rain = 0
KRO1 181608Z 19019KT 32/21 A2996 RMK A01 T03180206  RH  051%=      5-min Rain = 0
KRO1 181609Z 20017G22KT 32/21 A2996 RMK A01 T03220207  RH  051%=      5-min Rain = 0
KRO1 181610Z 19021KT 33/21 A2996 RMK A01 T03250205  RH  049%=      5-min Rain = 0
KRO1 181611Z 19023KT 32/21 A2996 RMK A01 T03240205  RH  049%=      5-min Rain = 0
KRO1 181612Z 20021KT 32/20 A2996 RMK A01 T03210204  RH  050%=      5-min Rain = 0
KRO1 181613Z 20017KT 32/21 A2996 RMK A01 T03190205  RH  051%=      5-min Rain = 0
KRO1 181614Z 18020KT 32/21 A2996 RMK A01 T03210206  RH  051%=      5-min Rain = 0
KRO1 181615Z 19019KT 32/21 A2996 RMK A01 T03210206  RH  051%=      5-min Rain = 0
KRO1 181616Z 19018KT 32/21 A2996 RMK A01 T03200206  RH  051%=      5-min Rain = 0
KRO1 181617Z 19019KT 32/21 A2996 RMK A01 T03200207  RH  051%=      5-min Rain = 0
KRO1 181618Z 19021G26KT 32/21 A2996 RMK A01 T03210205  RH  050%=      5-min Rain = 0
KRO1 181619Z 19022KT 32/20 A2996 RMK A01 T03220204  RH  050%=      5-min Rain = 0
KRO1 181620Z 18023KT 32/20 A2996 RMK A01 T03220204  RH  050%=      5-min Rain = 0
KRO1 181621Z 18023KT 32/20 A2996 RMK A01 T03220204  RH  050%=      5-min Rain = 0
KRO1 181622Z 18021KT 32/21 A2996 RMK A01 T03220205  RH  050%=      5-min Rain = 0
KRO1 181623Z 19021KT 32/20 A2996 RMK A01 T03230204  RH  050%=      5-min Rain = 0
KRO1 181624Z 19019KT 32/20 A2996 RMK A01 T03230204  RH  050%=      5-min Rain = 0
KRO1 181625Z 18016KT 32/21 A2996 RMK A01 T03220205  RH  050%=      5-min Rain = 0
KRO1 181626Z 18019KT 32/21 A2996 RMK A01 T03240207  RH  050%=      5-min Rain = 0
KRO1 181627Z 18021KT 33/21 A2996 RMK A01 T03260206  RH  049%=      5-min Rain = 0
KRO1 181628Z 17021KT 33/21 A2996 RMK A01 T03250205  RH  049%=      5-min Rain = 0
KRO1 181629Z 18019KT 32/21 A2996 RMK A01 T03240205  RH  050%=      5-min Rain = 0
KRO1 181630Z 18019KT 33/21 A2996 RMK A01 T03250206  RH  050%=      5-min Rain = 0
KRO1 181631Z 19017KT 33/21 A2996 RMK A01 T03270205  RH  049%=      5-min Rain = 0
KRO1 181632Z 20018KT 33/21 A2996 RMK A01 T03280206  RH  049%=      5-min Rain = 0
KRO1 181633Z 20019KT 33/21 A2996 RMK A01 T03300205  RH  048%=      5-min Rain = 0
KRO1 181634Z 20018KT 33/21 A2996 RMK A01 T03300206  RH  048%=      5-min Rain = 0
KRO1 181635Z 19020KT 33/21 A2996 RMK A01 T03310205  RH  048%=      5-min Rain = 0
KRO1 181636Z 18023KT 33/21 A2996 RMK A01 T03310205  RH  048%=      5-min Rain = 0
KRO1 181637Z 19021KT 33/21 A2996 RMK A01 T03300205  RH  048%=      5-min Rain = 0
KRO1 181638Z 19022KT 33/20 A2996 RMK A01 T03320204  RH  047%=      5-min Rain = 0
KRO1 181639Z 19022KT 33/20 A2996 RMK A01 T03280203  RH  048%=      5-min Rain = 0
KRO1 181640Z 18019KT 33/20 A2996 RMK A01 T03270204  RH  048%=      5-min Rain = 0
KRO1 181641Z 18019KT 33/20 A2996 RMK A01 T03270204  RH  048%=      5-min Rain = 0
KRO1 181642Z 18020KT 33/20 A2996 RMK A01 T03280204  RH  048%=      5-min Rain = 0
KRO1 181643Z 19018KT 33/20 A2996 RMK A01 T03300204  RH  047%=      5-min Rain = 0
KRO1 181644Z 19020KT 33/21 A2996 RMK A01 T03300205  RH  048%=      5-min Rain = 0
KRO1 181645Z 18020KT 33/21 A2996 RMK A01 T03330205  RH  047%=      5-min Rain = 0
KRO1 181646Z 19022KT 33/20 A2996 RMK A01 T03340204  RH  047%=      5-min Rain = 0
KRO1 181647Z 19021KT 33/21 A2996 RMK A01 T03330205  RH  047%=      5-min Rain = 0
KRO1 181648Z 19019G24KT 33/20 A2996 RMK A01 T03310204  RH  047%=      5-min Rain = 0
KRO1 181649Z 18018KT 33/20 A2996 RMK A01 T03300204  RH  048%=      5-min Rain = 0
KRO1 181650Z 19015KT 33/20 A2996 RMK A01 T03300204  RH  048%=      5-min Rain = 0
KRO1 181651Z 20016G21KT 34/21 A2996 RMK A01 T03350208  RH  047%=      5-min Rain = 0
KRO1 181652Z 20017KT 34/21 A2996 RMK A01 T03390207  RH  046%=      5-min Rain = 0
KRO1 181653Z 20018KT 34/21 A2996 RMK A01 T03390206  RH  046%=      5-min Rain = 0
KRO1 181654Z 19017KT 34/20 A2996 RMK A01 T03360203  RH  046%=      5-min Rain = 0
KRO1 181655Z 18018G24KT 33/20 A2996 RMK A01 T03320204  RH  047%=      5-min Rain = 0
KRO1 181656Z 18020KT 33/20 A2996 RMK A01 T03340204  RH  047%=      5-min Rain = 0
KRO1 181657Z 18016KT 34/20 A2996 RMK A01 T03350204  RH  046%=      5-min Rain = 0
KRO1 181658Z 18021KT 34/20 A2996 RMK A01 T03360204  RH  046%=      5-min Rain = 0
KRO1 181659Z 18020G25KT 34/20 A2996 RMK A01 T03370204  RH  046%=      5-min Rain = 0
KRO1 181700Z 20017KT 34/20 A2996 RMK A01 T03380204  RH  046%=      5-min Rain = 0
KRO1 181701Z 20017KT 34/20 A2996 RMK A01 T03370204  RH  046%=      5-min Rain = 0
KRO1 181702Z 19018G24KT 34/21 A2996 RMK A01 T03350205  RH  046%=      5-min Rain = 0
KRO1 181703Z 18024KT 34/20 A2996 RMK A01 T03360203  RH  046%=      5-min Rain = 0
KRO1 181704Z 18018KT 33/20 A2996 RMK A01 T03340202  RH  046%=      5-min Rain = 0
KRO1 181705Z 18019KT 33/20 A2996 RMK A01 T03340203  RH  046%=      5-min Rain = 0
KRO1 181706Z 18019KT 34/20 A2996 RMK A01 T03350203  RH  046%=      5-min Rain = 0
KRO1 181707Z 18019G24KT 34/20 A2996 RMK A01 T03350203  RH  046%=      5-min Rain = 0
KRO1 181708Z 19021KT 34/20 A2996 RMK A01 T03350202  RH  046%=      5-min Rain = 0
KRO1 181709Z 20017KT 34/20 A2996 RMK A01 T03350203  RH  046%=      5-min Rain = 0
KRO1 181710Z 19016KT 34/21 A2996 RMK A01 T03400205  RH  045%=      5-min Rain = 0
KRO1 181711Z 18015KT 34/21 A2996 RMK A01 T03420206  RH  045%=      5-min Rain = 0
KRO1 181712Z 18014KT 34/21 A2995 RMK A01 T03440207  RH  045%=      5-min Rain = 0
KRO1 181713Z 20020KT 35/21 A2995 RMK A01 T03450205  RH  044%=      5-min Rain = 0
KRO1 181714Z 20020KT 34/20 A2995 RMK A01 T03430204  RH  044%=      5-min Rain = 0
KRO1 181715Z 18016KT 34/20 A2996 RMK A01 T03420204  RH  045%=      5-min Rain = 0
KRO1 181716Z 20017G22KT 34/20 A2995 RMK A01 T03420204  RH  044%=      5-min Rain = 0
KRO1 181717Z 19020KT 34/20 A2995 RMK A01 T03420204  RH  045%=      5-min Rain = 0
KRO1 181718Z 19017KT 34/21 A2996 RMK A01 T03410205  RH  045%=      5-min Rain = 0
KRO1 181719Z 19016KT 34/21 A2995 RMK A01 T03410206  RH  045%=      5-min Rain = 0
KRO1 181720Z 19017KT 34/21 A2995 RMK A01 T03420205  RH  045%=      5-min Rain = 0
KRO1 181721Z 19021KT 34/20 A2995 RMK A01 T03420204  RH  044%=      5-min Rain = 0
KRO1 181722Z 19021KT 34/20 A2995 RMK A01 T03420204  RH  044%=      5-min Rain = 0
KRO1 181723Z 19021KT 34/20 A2995 RMK A01 T03430202  RH  044%=      5-min Rain = 0
KRO1 181724Z 20020KT 34/20 A2995 RMK A01 T03420202  RH  044%=      5-min Rain = 0
KRO1 181725Z 20020KT 34/20 A2995 RMK A01 T03430201  RH  043%=      5-min Rain = 0
KRO1 181726Z 21016KT 34/20 A2995 RMK A01 T03420202  RH  044%=      5-min Rain = 0
KRO1 181727Z 20014KT 34/20 A2995 RMK A01 T03420203  RH  044%=      5-min Rain = 0
KRO1 181728Z 20016KT 34/21 A2995 RMK A01 T03430206  RH  045%=      5-min Rain = 0
KRO1 181729Z 19020KT 35/21 A2995 RMK A01 T03480206  RH  044%=      5-min Rain = 0
KRO1 181730Z 19018KT 35/21 A2995 RMK A01 T03490205  RH  043%=      5-min Rain = 0
KRO1 181731Z 20016KT 35/20 A2995 RMK A01 T03460204  RH  044%=      5-min Rain = 0
KRO1 181732Z 19019KT 35/20 A2995 RMK A01 T03460204  RH  044%=      5-min Rain = 0
KRO1 181733Z 18020KT 35/20 A2995 RMK A01 T03470203  RH  043%=      5-min Rain = 0
KRO1 181734Z 19019KT 34/20 A2995 RMK A01 T03440201  RH  043%=      5-min Rain = 0
KRO1 181735Z 18017KT 34/20 A2995 RMK A01 T03430202  RH  044%=      5-min Rain = 0
KRO1 181736Z 20017KT 34/20 A2995 RMK A01 T03440203  RH  044%=      5-min Rain = 0
KRO1 181737Z 19019KT 35/20 A2995 RMK A01 T03450202  RH  043%=      5-min Rain = 0
KRO1 181738Z 18017KT 34/20 A2995 RMK A01 T03440201  RH  043%=      5-min Rain = 0
KRO1 181739Z 18018G23KT 34/20 A2995 RMK A01 T03420201  RH  044%=      5-min Rain = 0
KRO1 181740Z 19019KT 34/20 A2995 RMK A01 T03420201  RH  044%=      5-min Rain = 0
KRO1 181741Z 19015KT 34/20 A2995 RMK A01 T03410201  RH  044%=      5-min Rain = 0
KRO1 181742Z 20016KT 34/20 A2995 RMK A01 T03410202  RH  044%=      5-min Rain = 0
KRO1 181743Z 19014KT 35/20 A2995 RMK A01 T03450204  RH  044%=      5-min Rain = 0
KRO1 181744Z 20020KT 35/20 A2995 RMK A01 T03500202  RH  042%=      5-min Rain = 0
KRO1 181745Z 21018KT 35/20 A2995 RMK A01 T03510199  RH  041%=      5-min Rain = 0
KRO1 181746Z 20018KT 35/20 A2995 RMK A01 T03500199  RH  041%=      5-min Rain = 0
KRO1 181747Z 20019KT 35/20 A2995 RMK A01 T03500201  RH  042%=      5-min Rain = 0
KRO1 181748Z 19018KT 35/20 A2995 RMK A01 T03500202  RH  042%=      5-min Rain = 0
KRO1 181749Z 18017KT 35/20 A2995 RMK A01 T03500203  RH  042%=      5-min Rain = 0
KRO1 181750Z 17018KT 35/20 A2995 RMK A01 T03490203  RH  042%=      5-min Rain = 0
KRO1 181751Z 17020KT 35/20 A2995 RMK A01 T03490199  RH  042%=      5-min Rain = 0
KRO1 181752Z 17017KT 35/20 A2995 RMK A01 T03470200  RH  042%=      5-min Rain = 0
KRO1 181753Z 18014KT 35/20 A2995 RMK A01 T03470200  RH  042%=      5-min Rain = 0
KRO1 181754Z 19016KT 35/20 A2994 RMK A01 T03490201  RH  042%=      5-min Rain = 0
KRO1 181755Z 20016KT 35/20 A2994 RMK A01 T03510204  RH  042%=      5-min Rain = 0
KRO1 181756Z 17015G21KT 35/21 A2994 RMK A01 T03530206  RH  042%=      5-min Rain = 0
KRO1 181757Z 18017G22KT 36/21 A2994 RMK A01 T03560205  RH  041%=      5-min Rain = 0
KRO1 181758Z 18017G23KT 35/20 A2994 RMK A01 T03530204  RH  042%=      5-min Rain = 0
KRO1 181759Z 20020KT 35/20 A2994 RMK A01 T03530202  RH  041%=      5-min Rain = 0
KRO1 181800Z 21017KT 35/20 A2994 RMK A01 T03540201  RH  041%=      5-min Rain = 0
KRO1 181801Z 20018KT 35/20 A2994 RMK A01 T03540201  RH  041%=      5-min Rain = 0
KRO1 181802Z 19015KT 35/20 A2994 RMK A01 T03540202  RH  041%=      5-min Rain = 0
KRO1 181803Z 19014KT 35/20 A2994 RMK A01 T03520202  RH  042%=      5-min Rain = 0
KRO1 181804Z 18017KT 35/20 A2994 RMK A01 T03520203  RH  042%=      5-min Rain = 0
KRO1 181805Z 17016KT 35/20 A2994 RMK A01 T03520202  RH  042%=      5-min Rain = 0
KRO1 181806Z 19019KT 35/20 A2994 RMK A01 T03530202  RH  041%=      5-min Rain = 0
KRO1 181807Z 19020KT 36/20 A2994 RMK A01 T03550200  RH  040%=      5-min Rain = 0
KRO1 181808Z 19020KT 35/20 A2994 RMK A01 T03540201  RH  041%=      5-min Rain = 0
KRO1 181809Z 20021KT 36/20 A2994 RMK A01 T03560199  RH  040%=      5-min Rain = 0
KRO1 181810Z 20021KT 36/20 A2994 RMK A01 T03550195  RH  039%=      5-min Rain = 0
KRO1 181811Z 20019KT 35/19 A2994 RMK A01 T03520194  RH  040%=      5-min Rain = 0
KRO1 181812Z 19018KT 35/20 A2994 RMK A01 T03500197  RH  041%=      5-min Rain = 0
KRO1 181813Z 19020KT 35/20 A2994 RMK A01 T03500201  RH  042%=      5-min Rain = 0
KRO1 181814Z 18019KT 35/20 A2994 RMK A01 T03510199  RH  041%=      5-min Rain = 0
KRO1 181815Z 18018KT 35/20 A2994 RMK A01 T03510200  RH  041%=      5-min Rain = 0
KRO1 181816Z 19020KT 35/20 A2993 RMK A01 T03520199  RH  041%=      5-min Rain = 0
KRO1 181817Z 19018KT 35/20 A2994 RMK A01 T03520195  RH  040%=      5-min Rain = 0
KRO1 181818Z 20017KT 35/19 A2994 RMK A01 T03530193  RH  039%=      5-min Rain = 0
KRO1 181819Z 19022KT 35/20 A2993 RMK A01 T03540196  RH  040%=      5-min Rain = 0
KRO1 181820Z 19021KT 36/20 A2993 RMK A01 T03550197  RH  040%=      5-min Rain = 0
KRO1 181821Z 18019KT 36/20 A2993 RMK A01 T03550198  RH  040%=      5-min Rain = 0
KRO1 181822Z 18016KT 36/20 A2993 RMK A01 T03550196  RH  040%=      5-min Rain = 0
KRO1 181823Z 17017KT 35/20 A2993 RMK A01 T03510197  RH  041%=      5-min Rain = 0
KRO1 181824Z 19016KT 35/20 A2993 RMK A01 T03500199  RH  041%=      5-min Rain = 0
KRO1 181825Z 18017KT 35/20 A2993 RMK A01 T03500201  RH  042%=      5-min Rain = 0
KRO1 181826Z 18020KT 35/20 A2993 RMK A01 T03530202  RH  041%=      5-min Rain = 0
KRO1 181827Z 18021KT 36/20 A2993 RMK A01 T03560200  RH  040%=      5-min Rain = 0
KRO1 181828Z 18019KT 36/20 A2993 RMK A01 T03560200  RH  040%=      5-min Rain = 0
KRO1 181829Z 18014KT 36/20 A2993 RMK A01 T03550199  RH  040%=      5-min Rain = 0
KRO1 181830Z 18017KT 35/20 A2993 RMK A01 T03520202  RH  041%=      5-min Rain = 0
KRO1 181831Z 18019KT 36/20 A2993 RMK A01 T03550203  RH  041%=      5-min Rain = 0
KRO1 181832Z 17019KT 36/20 A2993 RMK A01 T03560201  RH  040%=      5-min Rain = 0
KRO1 181833Z 17022KT 36/20 A2993 RMK A01 T03560203  RH  041%=      5-min Rain = 0
KRO1 181834Z 17020KT 36/20 A2993 RMK A01 T03570202  RH  040%=      5-min Rain = 0
KRO1 181835Z 19018G23KT 36/20 A2993 RMK A01 T03560203  RH  041%=      5-min Rain = 0
KRO1 181836Z 19017KT 36/20 A2993 RMK A01 T03590202  RH  040%=      5-min Rain = 0
KRO1 181837Z 18019G24KT 36/20 A2993 RMK A01 T03580203  RH  041%=      5-min Rain = 0
KRO1 181838Z 18020KT 36/20 A2993 RMK A01 T03600202  RH  040%=      5-min Rain = 0
KRO1 181839Z 18018KT 36/20 A2993 RMK A01 T03600201  RH  040%=      5-min Rain = 0
KRO1 181840Z 18021KT 36/20 A2993 RMK A01 T03630201  RH  039%=      5-min Rain = 0
KRO1 181841Z 18020KT 36/20 A2993 RMK A01 T03620197  RH  038%=      5-min Rain = 0
KRO1 181842Z 18014KT 36/20 A2993 RMK A01 T03590201  RH  040%=      5-min Rain = 0
KRO1 181843Z 19017KT 36/20 A2993 RMK A01 T03580204  RH  041%=      5-min Rain = 0
KRO1 181844Z 17018KT 36/20 A2993 RMK A01 T03620201  RH  039%=      5-min Rain = 0
KRO1 181845Z 18016KT 36/20 A2993 RMK A01 T03630200  RH  039%=      5-min Rain = 0
KRO1 181846Z 18016KT 36/20 A2993 RMK A01 T03630202  RH  039%=      5-min Rain = 0
KRO1 181847Z 17017KT 36/20 A2993 RMK A01 T03610202  RH  040%=      5-min Rain = 0
KRO1 181848Z 18021KT 36/20 A2993 RMK A01 T03590202  RH  040%=      5-min Rain = 0
KRO1 181849Z 17017KT 36/20 A2993 RMK A01 T03590202  RH  040%=      5-min Rain = 0
KRO1 181850Z 17020KT 36/20 A2993 RMK A01 T03610200  RH  039%=      5-min Rain = 0
KRO1 181851Z 17019KT 36/20 A2993 RMK A01 T03600199  RH  039%=      5-min Rain = 0
KRO1 181852Z 17016G21KT 36/20 A2993 RMK A01 T03580201  RH  040%=      5-min Rain = 0
KRO1 181853Z 17016KT 36/20 A2993 RMK A01 T03600201  RH  040%=      5-min Rain = 0
KRO1 181854Z 16015KT 36/20 A2993 RMK A01 T03590203  RH  040%=      5-min Rain = 0
KRO1 181855Z 17017KT 36/20 A2993 RMK A01 T03610200  RH  039%=      5-min Rain = 0
KRO1 181856Z 17017KT 36/20 A2993 RMK A01 T03610199  RH  039%=      5-min Rain = 0
KRO1 181857Z 18017KT 36/20 A2993 RMK A01 T03600199  RH  039%=      5-min Rain = 0
KRO1 181858Z 18020KT 36/20 A2993 RMK A01 T03620200  RH  039%=      5-min Rain = 0
KRO1 181859Z 18019KT 36/20 A2993 RMK A01 T03630203  RH  039%=      5-min Rain = 0
KRO1 181900Z 20016KT 36/20 A2992 RMK A01 T03590203  RH  040%=      5-min Rain = 0
KRO1 181901Z 19017G26KT 36/20 A2992 RMK A01 T03590204  RH  040%=      5-min Rain = 0
KRO1 181902Z 17021KT 36/20 A2992 RMK A01 T03590202  RH  040%=      5-min Rain = 0
KRO1 181903Z 17017KT 36/20 A2992 RMK A01 T03580201  RH  040%=      5-min Rain = 0
KRO1 181904Z 16018KT 36/20 A2992 RMK A01 T03580202  RH  040%=      5-min Rain = 0
KRO1 181905Z 18021KT 36/20 A2992 RMK A01 T03580199  RH  040%=      5-min Rain = 0
KRO1 181906Z 19020KT 36/20 A2992 RMK A01 T03600198  RH  039%=      5-min Rain = 0
KRO1 181907Z 20021KT 36/20 A2992 RMK A01 T03600198  RH  039%=      5-min Rain = 0
KRO1 181908Z 20017KT 36/20 A2992 RMK A01 T03610199  RH  039%=      5-min Rain = 0
KRO1 181909Z 20019KT 36/20 A2992 RMK A01 T03610201  RH  039%=      5-min Rain = 0
KRO1 181910Z 20016KT 36/20 A2992 RMK A01 T03630201  RH  039%=      5-min Rain = 0
KRO1 181911Z 20017KT 37/20 A2992 RMK A01 T03650201  RH  039%=      5-min Rain = 0
KRO1 181912Z 17014G20KT 37/20 A2992 RMK A01 T03650204  RH  039%=      5-min Rain = 0
KRO1 181913Z 16020KT 37/20 A2992 RMK A01 T03670203  RH  038%=      5-min Rain = 0
KRO1 181914Z 17016KT 36/20 A2992 RMK A01 T03640202  RH  039%=      5-min Rain = 0
KRO1 181915Z 17014KT 36/21 A2992 RMK A01 T03630205  RH  040%=      5-min Rain = 0
KRO1 181916Z 18016KT 36/21 A2992 RMK A01 T03630205  RH  040%=      5-min Rain = 0
KRO1 181917Z 17015G23KT 36/21 A2992 RMK A01 T03620205  RH  040%=      5-min Rain = 0
KRO1 181918Z 19022KT 36/20 A2992 RMK A01 T03640201  RH  039%=      5-min Rain = 0
KRO1 181919Z 19017KT 36/20 A2992 RMK A01 T03620200  RH  039%=      5-min Rain = 0
KRO1 181920Z 17020KT 36/20 A2992 RMK A01 T03610198  RH  039%=      5-min Rain = 0
KRO1 181921Z 17019KT 36/20 A2992 RMK A01 T03640196  RH  038%=      5-min Rain = 0
KRO1 181922Z 17018KT 36/20 A2992 RMK A01 T03640196  RH  037%=      5-min Rain = 0
KRO1 181923Z 16019KT 36/20 A2992 RMK A01 T03630196  RH  038%=      5-min Rain = 0
KRO1 181924Z 17016KT 36/20 A2992 RMK A01 T03610197  RH  038%=      5-min Rain = 0
KRO1 181925Z 17013KT 36/20 A2992 RMK A01 T03610200  RH  039%=      5-min Rain = 0
KRO1 181926Z 16015KT 36/20 A2992 RMK A01 T03610199  RH  039%=      5-min Rain = 0
KRO1 181927Z 18016KT 36/20 A2992 RMK A01 T03630202  RH  039%=      5-min Rain = 0
KRO1 181928Z 18015KT 37/20 A2992 RMK A01 T03650203  RH  039%=      5-min Rain = 0
KRO1 181929Z 18017KT 36/20 A2992 RMK A01 T03640203  RH  039%=      5-min Rain = 0
KRO1 181930Z 18021KT 37/20 A2992 RMK A01 T03660203  RH  039%=      5-min Rain = 0
KRO1 181931Z 17019KT 37/20 A2992 RMK A01 T03680201  RH  038%=      5-min Rain = 0
KRO1 181932Z 17017KT 37/20 A2992 RMK A01 T03660200  RH  038%=      5-min Rain = 0
KRO1 181933Z 17017G22KT 36/20 A2991 RMK A01 T03640199  RH  038%=      5-min Rain = 0
KRO1 181934Z 17017KT 36/20 A2991 RMK A01 T03610200  RH  039%=      5-min Rain = 0
KRO1 181935Z 16018KT 36/20 A2991 RMK A01 T03610201  RH  039%=      5-min Rain = 0
KRO1 181936Z 16017KT 36/20 A2991 RMK A01 T03620201  RH  039%=      5-min Rain = 0
KRO1 181937Z 16018KT 36/20 A2991 RMK A01 T03640202  RH  039%=      5-min Rain = 0
KRO1 181938Z 17016KT 37/20 A2991 RMK A01 T03660202  RH  039%=      5-min Rain = 0
KRO1 181939Z 18015KT 37/20 A2991 RMK A01 T03660202  RH  039%=      5-min Rain = 0
KRO1 181940Z 17019G24KT 37/20 A2991 RMK A01 T03680199  RH  037%=      5-min Rain = 0
KRO1 181941Z 17021KT 37/20 A2991 RMK A01 T03680201  RH  038%=      5-min Rain = 0
KRO1 181942Z 16018KT 37/20 A2991 RMK A01 T03660201  RH  038%=      5-min Rain = 0
KRO1 181943Z 16015KT 37/20 A2991 RMK A01 T03650201  RH  038%=      5-min Rain = 0
KRO1 181944Z 16013KT 37/20 A2991 RMK A01 T03650201  RH  039%=      5-min Rain = 0
KRO1 181945Z 18016KT 37/20 A2991 RMK A01 T03670201  RH  038%=      5-min Rain = 0
KRO1 181946Z 16017KT 37/20 A2991 RMK A01 T03690202  RH  038%=      5-min Rain = 0
KRO1 181947Z 15019KT 37/20 A2991 RMK A01 T03680201  RH  038%=      5-min Rain = 0
KRO1 181948Z 16016KT 37/20 A2991 RMK A01 T03670202  RH  038%=      5-min Rain = 0
KRO1 181949Z 19022KT 37/20 A2991 RMK A01 T03680199  RH  037%=      5-min Rain = 0
KRO1 181950Z 19017KT 37/20 A2991 RMK A01 T03690199  RH  037%=      5-min Rain = 0
KRO1 181951Z 18012KT 37/20 A2991 RMK A01 T03700198  RH  037%=      5-min Rain = 0
KRO1 181952Z 18016KT 37/20 A2991 RMK A01 T03680201  RH  038%=      5-min Rain = 0
KRO1 181953Z 16019KT 37/20 A2991 RMK A01 T03710201  RH  037%=      5-min Rain = 0
KRO1 181954Z 16016KT 37/20 A2991 RMK A01 T03710202  RH  037%=      5-min Rain = 0
KRO1 181955Z 17016KT 37/20 A2991 RMK A01 T03720201  RH  037%=      5-min Rain = 0
KRO1 181956Z 17019KT 38/20 A2991 RMK A01 T03750198  RH  036%=      5-min Rain = 0
KRO1 181957Z 17018KT 38/20 A2991 RMK A01 T03750196  RH  035%=      5-min Rain = 0
KRO1 181958Z 17016KT 37/20 A2991 RMK A01 T03720197  RH  036%=      5-min Rain = 0
KRO1 181959Z 17016KT 37/20 A2991 RMK A01 T03700197  RH  037%=      5-min Rain = 0
KRO1 182000Z 17016KT 37/20 A2991 RMK A01 T03680196  RH  037%=      5-min Rain = 0
KRO1 182001Z 16018KT 37/20 A2991 RMK A01 T03660196  RH  037%=      5-min Rain = 0
KRO1 182002Z 15015KT 37/20 A2991 RMK A01 T03670197  RH  037%=      5-min Rain = 0
KRO1 182003Z 16016KT 37/20 A2991 RMK A01 T03680195  RH  036%=      5-min Rain = 0
KRO1 182004Z 14013G19KT 37/20 A2991 RMK A01 T03700196  RH  036%=      5-min Rain = 0
KRO1 182005Z 15017KT 37/19 A2991 RMK A01 T03710194  RH  036%=      5-min Rain = 0
KRO1 182006Z 16017KT 37/19 A2991 RMK A01 T03710191  RH  035%=      5-min Rain = 0
KRO1 182007Z 16018KT 37/20 A2991 RMK A01 T03710195  RH  036%=      5-min Rain = 0
KRO1 182008Z 15016KT 37/20 A2991 RMK A01 T03710197  RH  036%=      5-min Rain = 0
KRO1 182009Z 16017KT 37/20 A2991 RMK A01 T03700198  RH  037%=      5-min Rain = 0
KRO1 182010Z 16016KT 37/20 A2991 RMK A01 T03710197  RH  036%=      5-min Rain = 0
KRO1 182011Z 16018KT 37/20 A2991 RMK A01 T03710197  RH  036%=      5-min Rain = 0
KRO1 182012Z 16019KT 37/20 A2991 RMK A01 T03710198  RH  036%=      5-min Rain = 0
KRO1 182013Z 17016KT 37/20 A2991 RMK A01 T03720199  RH  037%=      5-min Rain = 0
KRO1 182014Z 17017KT 37/20 A2991 RMK A01 T03720198  RH  036%=      5-min Rain = 0
KRO1 182015Z 18015KT 37/20 A299 RMK A01 T03720198  RH  036%=      5-min Rain = 0
KRO1 182016Z 18016G21KT 37/20 A299 RMK A01 T03720196  RH  036%=      5-min Rain = 0
KRO1 182017Z 18016KT 37/19 A299 RMK A01 T03730194  RH  035%=      5-min Rain = 0
KRO1 182018Z 20017KT 37/20 A299 RMK A01 T03720196  RH  036%=      5-min Rain = 0
KRO1 182019Z 17020KT 37/20 A299 RMK A01 T03730197  RH  036%=      5-min Rain = 0
KRO1 182020Z 17018KT 37/20 A299 RMK A01 T03740196  RH  036%=      5-min Rain = 0
KRO1 182021Z 17018KT 37/19 A299 RMK A01 T03720194  RH  035%=      5-min Rain = 0
KRO1 182022Z 16017KT 37/19 A299 RMK A01 T03710192  RH  035%=      5-min Rain = 0
KRO1 182023Z 17016KT 37/20 A299 RMK A01 T03690195  RH  036%=      5-min Rain = 0
KRO1 182024Z 17015KT 37/20 A299 RMK A01 T03690195  RH  036%=      5-min Rain = 0
KRO1 182025Z 16015KT 37/19 A299 RMK A01 T03700194  RH  036%=      5-min Rain = 0
KRO1 182026Z 15017G23KT 37/20 A299 RMK A01 T03720195  RH  036%=      5-min Rain = 0
KRO1 182027Z 16022KT 38/20 A299 RMK A01 T03750196  RH  035%=      5-min Rain = 0
KRO1 182028Z 15019KT 37/20 A299 RMK A01 T03710196  RH  036%=      5-min Rain = 0
KRO1 182029Z 15017G22KT 37/20 A299 RMK A01 T03690196  RH  037%=      5-min Rain = 0
KRO1 182030Z 16020G25KT 37/19 A299 RMK A01 T03700194  RH  036%=      5-min Rain = 0
KRO1 182031Z 16017KT 37/19 A299 RMK A01 T03700194  RH  036%=      5-min Rain = 0
KRO1 182032Z 16018KT 37/20 A299 RMK A01 T03690197  RH  037%=      5-min Rain = 0
KRO1 182033Z 18016KT 37/19 A299 RMK A01 T03700193  RH  036%=      5-min Rain = 0
KRO1 182034Z 19017KT 37/19 A299 RMK A01 T03710193  RH  035%=      5-min Rain = 0
KRO1 182035Z 19015KT 37/19 A299 RMK A01 T03730190  RH  034%=      5-min Rain = 0
KRO1 182036Z 19016KT 37/19 A299 RMK A01 T03730190  RH  035%=      5-min Rain = 0
KRO1 182037Z 18019KT 37/19 A299 RMK A01 T03720190  RH  035%=      5-min Rain = 0
KRO1 182038Z 18017KT 37/19 A299 RMK A01 T03740192  RH  035%=      5-min Rain = 0
KRO1 182039Z 18016KT 38/19 A299 RMK A01 T03770192  RH  034%=      5-min Rain = 0
KRO1 182040Z 18019KT 38/19 A299 RMK A01 T03780194  RH  034%=      5-min Rain = 0
KRO1 182041Z 17018G23KT 38/19 A299 RMK A01 T03780190  RH  034%=      5-min Rain = 0
KRO1 182042Z 17019KT 38/19 A299 RMK A01 T03750188  RH  034%=      5-min Rain = 0
KRO1 182043Z 18017KT 37/19 A299 RMK A01 T03730190  RH  034%=      5-min Rain = 0
KRO1 182044Z 18016KT 37/19 A299 RMK A01 T03740192  RH  034%=      5-min Rain = 0
KRO1 182045Z 17016KT 38/19 A299 RMK A01 T03750192  RH  034%=      5-min Rain = 0
KRO1 182046Z 16019KT 37/19 A299 RMK A01 T03730189  RH  034%=      5-min Rain = 0
KRO1 182047Z 17017KT 37/19 A299 RMK A01 T03710190  RH  035%=      5-min Rain = 0
KRO1 182048Z 15014KT 37/19 A299 RMK A01 T03690191  RH  035%=      5-min Rain = 0
KRO1 182049Z 16013KT 37/19 A299 RMK A01 T03690192  RH  036%=      5-min Rain = 0
KRO1 182050Z 18017KT 37/19 A2989 RMK A01 T03720192  RH  035%=      5-min Rain = 0
KRO1 182051Z 17017KT 38/19 A2989 RMK A01 T03750190  RH  034%=      5-min Rain = 0
KRO1 182052Z 18016KT 37/19 A2989 RMK A01 T03740188  RH  034%=      5-min Rain = 0
KRO1 182053Z 17015KT 37/19 A2989 RMK A01 T03740189  RH  034%=      5-min Rain = 0
KRO1 182054Z 16017KT 38/20 A2989 RMK A01 T03760196  RH  035%=      5-min Rain = 0
KRO1 182055Z 16017KT 38/20 A2989 RMK A01 T03760196  RH  035%=      5-min Rain = 0
KRO1 182056Z 18018KT 38/19 A2989 RMK A01 T03760191  RH  034%=      5-min Rain = 0
KRO1 182057Z 19018KT 38/19 A2989 RMK A01 T03770190  RH  034%=      5-min Rain = 0
KRO1 182058Z 19018KT 38/19 A2989 RMK A01 T03770191  RH  034%=      5-min Rain = 0
KRO1 182059Z 18016KT 38/20 A2989 RMK A01 T03760195  RH  035%=      5-min Rain = 0
KRO1 182100Z 16018KT 38/20 A299 RMK A01 T03760195  RH  035%=      5-min Rain = 0
KRO1 182101Z 17014KT 38/19 A2989 RMK A01 T03760191  RH  034%=      5-min Rain = 0
KRO1 182102Z 16016G22KT 37/19 A2989 RMK A01 T03720194  RH  035%=      5-min Rain = 0
KRO1 182103Z 15016KT 37/19 A2989 RMK A01 T03730194  RH  035%=      5-min Rain = 0
KRO1 182104Z 16015KT 38/20 A2989 RMK A01 T03760195  RH  035%=      5-min Rain = 0
KRO1 182105Z 18017KT 38/19 A2989 RMK A01 T03780191  RH  034%=      5-min Rain = 0
KRO1 182106Z 18019KT 38/19 A2989 RMK A01 T03770191  RH  034%=      5-min Rain = 0
KRO1 182107Z 17019KT 38/19 A2989 RMK A01 T03760187  RH  033%=      5-min Rain = 0
KRO1 182108Z 17017KT 37/19 A2989 RMK A01 T03730187  RH  034%=      5-min Rain = 0
KRO1 182109Z 16014KT 37/19 A2989 RMK A01 T03730191  RH  035%=      5-min Rain = 0
KRO1 182110Z 17012KT 38/19 A2989 RMK A01 T03760192  RH  034%=      5-min Rain = 0
KRO1 182111Z 18016KT 38/19 A2989 RMK A01 T03770187  RH  033%=      5-min Rain = 0
KRO1 182112Z 17019KT 38/19 A2989 RMK A01 T03770190  RH  034%=      5-min Rain = 0
KRO1 182113Z 18014KT 38/19 A2989 RMK A01 T03770190  RH  034%=      5-min Rain = 0
KRO1 182114Z 18018KT 38/19 A2989 RMK A01 T03780192  RH  034%=      5-min Rain = 0
KRO1 182115Z 17019G24KT 38/19 A2989 RMK A01 T03760191  RH  034%=      5-min Rain = 0
KRO1 182116Z 18021KT 38/19 A2989 RMK A01 T03760189  RH  034%=      5-min Rain = 0
KRO1 182117Z 18015G20KT 38/19 A2989 RMK A01 T03750188  RH  033%=      5-min Rain = 0
KRO1 182118Z 17016G21KT 38/19 A2989 RMK A01 T03750188  RH  034%=      5-min Rain = 0
KRO1 182119Z 16018KT 38/19 A2989 RMK A01 T03750187  RH  033%=      5-min Rain = 0
KRO1 182120Z 17018KT 38/18 A2989 RMK A01 T03750184  RH  033%=      5-min Rain = 0
KRO1 182121Z 18021KT 38/19 A2989 RMK A01 T03750191  RH  034%=      5-min Rain = 0
KRO1 182122Z 17017KT 38/19 A2989 RMK A01 T03760191  RH  034%=      5-min Rain = 0
KRO1 182123Z 17014KT 38/19 A2989 RMK A01 T03750191  RH  034%=      5-min Rain = 0
KRO1 182124Z 17012KT 37/19 A2988 RMK A01 T03740190  RH  034%=      5-min Rain = 0
KRO1 182125Z 17014KT 37/19 A2988 RMK A01 T03730189  RH  034%=      5-min Rain = 0
KRO1 182126Z 17020KT 37/19 A2988 RMK A01 T03730189  RH  034%=      5-min Rain = 0
KRO1 182127Z 16021G26KT 37/19 A2988 RMK A01 T03730193  RH  035%=      5-min Rain = 0
KRO1 182128Z 16017KT 37/19 A2988 RMK A01 T03730193  RH  035%=      5-min Rain = 0
KRO1 182129Z 17021KT 37/19 A2988 RMK A01 T03720191  RH  035%=      5-min Rain = 0
KRO1 182130Z 16019G24KT 37/19 A2988 RMK A01 T03730189  RH  034%=      5-min Rain = 0
KRO1 182131Z 18020G28KT 37/19 A2988 RMK A01 T03740186  RH  033%=      5-min Rain = 0
KRO1 182132Z 19018KT 38/18 A2988 RMK A01 T03750183  RH  033%=      5-min Rain = 0
KRO1 182133Z 19014KT 38/18 A2988 RMK A01 T03750182  RH  032%=      5-min Rain = 0
KRO1 182134Z 18017KT 38/19 A2988 RMK A01 T03760185  RH  033%=      5-min Rain = 0
KRO1 182135Z 19019KT 38/19 A2988 RMK A01 T03760185  RH  033%=      5-min Rain = 0
KRO1 182136Z 19014G19KT 38/19 A2988 RMK A01 T03760185  RH  033%=      5-min Rain = 0
KRO1 182137Z 19012KT 38/19 A2988 RMK A01 T03750188  RH  033%=      5-min Rain = 0
KRO1 182138Z 16014KT 38/19 A2988 RMK A01 T03800186  RH  032%=      5-min Rain = 0
KRO1 182139Z 16016KT 38/18 A2988 RMK A01 T03800181  RH  031%=      5-min Rain = 0
KRO1 182140Z 17015KT 38/18 A2988 RMK A01 T03770183  RH  032%=      5-min Rain = 0
KRO1 182141Z 16020KT 38/19 A2988 RMK A01 T03750190  RH  034%=      5-min Rain = 0
KRO1 182142Z 17021KT 38/19 A2988 RMK A01 T03760191  RH  034%=      5-min Rain = 0
KRO1 182143Z 17013KT 37/19 A2988 RMK A01 T03740190  RH  034%=      5-min Rain = 0
KRO1 182144Z 16012KT 37/19 A2988 RMK A01 T03720191  RH  035%=      5-min Rain = 0
KRO1 182145Z 15016G25KT 37/19 A2987 RMK A01 T03730192  RH  035%=      5-min Rain = 0
KRO1 182146Z 17021G36KT 38/19 A2987 RMK A01 T03770191  RH  034%=      5-min Rain = 0
KRO1 182147Z 16019KT 38/19 A2988 RMK A01 T03780188  RH  033%=      5-min Rain = 0
KRO1 182148Z 17014KT 38/19 A2988 RMK A01 T03770188  RH  033%=      5-min Rain = 0
KRO1 182149Z 17017KT 38/19 A2988 RMK A01 T03780189  RH  033%=      5-min Rain = 0
KRO1 182150Z 17017KT 38/19 A2988 RMK A01 T03790186  RH  032%=      5-min Rain = 0
KRO1 182151Z 16018KT 38/19 A2988 RMK A01 T03760186  RH  033%=      5-min Rain = 0
KRO1 182152Z 15019KT 38/19 A2988 RMK A01 T03750189  RH  034%=      5-min Rain = 0
KRO1 182153Z 15017KT 38/19 A2987 RMK A01 T03750189  RH  034%=      5-min Rain = 0
KRO1 182154Z 16018KT 38/19 A2987 RMK A01 T03750188  RH  034%=      5-min Rain = 0
KRO1 182155Z 17017KT 38/19 A2987 RMK A01 T03760188  RH  033%=      5-min Rain = 0
KRO1 182156Z 17016KT 38/19 A2987 RMK A01 T03760186  RH  033%=      5-min Rain = 0
KRO1 182157Z 17013G19KT 38/19 A2987 RMK A01 T03760187  RH  033%=      5-min Rain = 0
KRO1 182158Z 16017KT 38/19 A2987 RMK A01 T03770185  RH  033%=      5-min Rain = 0
KRO1 182159Z 16015KT 38/19 A2987 RMK A01 T03750185  RH  033%=      5-min Rain = 0
KRO1 182200Z 15017G25KT 37/19 A2987 RMK A01 T03740186  RH  033%=      5-min Rain = 0
KRO1 182201Z 15019KT 38/19 A2987 RMK A01 T03750187  RH  033%=      5-min Rain = 0
KRO1 182202Z 15016KT 37/19 A2987 RMK A01 T03740187  RH  034%=      5-min Rain = 0
KRO1 182203Z 15019KT 37/19 A2987 RMK A01 T03740189  RH  034%=      5-min Rain = 0
KRO1 182204Z 15018KT 38/19 A2987 RMK A01 T03760191  RH  034%=      5-min Rain = 0
KRO1 182205Z 18018KT 38/19 A2987 RMK A01 T03790189  RH  033%=      5-min Rain = 0
KRO1 182206Z 18015KT 38/19 A2987 RMK A01 T03790185  RH  032%=      5-min Rain = 0
KRO1 182207Z 18015G20KT 38/19 A2987 RMK A01 T03770185  RH  033%=      5-min Rain = 0
KRO1 182208Z 18020KT 38/19 A2987 RMK A01 T03770187  RH  033%=      5-min Rain = 0
KRO1 182209Z 17020KT 38/19 A2987 RMK A01 T03770188  RH  033%=      5-min Rain = 0
KRO1 182210Z 17018KT 38/19 A2987 RMK A01 T03760189  RH  034%=      5-min Rain = 0
KRO1 182211Z 17014KT 37/19 A2987 RMK A01 T03740188  RH  034%=      5-min Rain = 0
KRO1 182212Z 17014KT 37/19 A2987 RMK A01 T03740189  RH  034%=      5-min Rain = 0
KRO1 182213Z 17019KT 37/19 A2987 RMK A01 T03740185  RH  033%=      5-min Rain = 0
KRO1 182214Z 17019KT 38/18 A2987 RMK A01 T03750181  RH  032%=      5-min Rain = 0
KRO1 182215Z 18016KT 37/18 A2987 RMK A01 T03740181  RH  032%=      5-min Rain = 0
KRO1 182216Z 18012KT 38/18 A2986 RMK A01 T03750182  RH  032%=      5-min Rain = 0
KRO1 182217Z 18013KT 38/18 A2986 RMK A01 T03760182  RH  032%=      5-min Rain = 0
KRO1 182218Z 17015KT 38/18 A2986 RMK A01 T03760184  RH  032%=      5-min Rain = 0
KRO1 182219Z 16017KT 38/19 A2986 RMK A01 T03780186  RH  033%=      5-min Rain = 0
KRO1 182220Z 16017KT 38/18 A2986 RMK A01 T03760184  RH  033%=      5-min Rain = 0
KRO1 182221Z 16015KT 38/19 A2986 RMK A01 T03750186  RH  033%=      5-min Rain = 0
KRO1 182222Z 17015KT 38/19 A2986 RMK A01 T03750189  RH  034%=      5-min Rain = 0
KRO1 182223Z 17018KT 38/19 A2986 RMK A01 T03780186  RH  033%=      5-min Rain = 0
KRO1 182224Z 16017KT 38/19 A2986 RMK A01 T03790187  RH  033%=      5-min Rain = 0
KRO1 182225Z 17015KT 38/19 A2986 RMK A01 T03760187  RH  033%=      5-min Rain = 0
KRO1 182226Z 16014KT 37/19 A2986 RMK A01 T03740187  RH  034%=      5-min Rain = 0
KRO1 182227Z 18019KT 38/19 A2986 RMK A01 T03750186  RH  033%=      5-min Rain = 0
KRO1 182228Z 18017G22KT 38/18 A2986 RMK A01 T03770178  RH  031%=      5-min Rain = 0
KRO1 182229Z 18017KT 38/18 A2986 RMK A01 T03790180  RH  031%=      5-min Rain = 0
KRO1 182230Z 18016KT 38/18 A2986 RMK A01 T03780181  RH  032%=      5-min Rain = 0
KRO1 182231Z 18017KT 38/18 A2986 RMK A01 T03770183  RH  032%=      5-min Rain = 0
KRO1 182232Z 19016KT 38/18 A2986 RMK A01 T03770184  RH  032%=      5-min Rain = 0
KRO1 182233Z 18014KT 38/19 A2986 RMK A01 T03750185  RH  033%=      5-min Rain = 0
KRO1 182234Z 18016KT 38/19 A2986 RMK A01 T03750186  RH  033%=      5-min Rain = 0
KRO1 182235Z 17020KT 38/19 A2986 RMK A01 T03770187  RH  033%=      5-min Rain = 0
KRO1 182236Z 17020KT 38/19 A2986 RMK A01 T03770186  RH  033%=      5-min Rain = 0
KRO1 182237Z 17016KT 38/19 A2986 RMK A01 T03750185  RH  033%=      5-min Rain = 0
KRO1 182238Z 17016KT 37/19 A2986 RMK A01 T03740187  RH  034%=      5-min Rain = 0
KRO1 182239Z 17014KT 37/19 A2986 RMK A01 T03740187  RH  034%=      5-min Rain = 0
KRO1 182240Z 16017KT 38/19 A2986 RMK A01 T03760187  RH  033%=      5-min Rain = 0
KRO1 182241Z 16020KT 38/19 A2985 RMK A01 T03760185  RH  033%=      5-min Rain = 0
KRO1 182242Z 17022KT 38/18 A2985 RMK A01 T03750184  RH  033%=      5-min Rain = 0
KRO1 182243Z 17020KT 38/18 A2985 RMK A01 T03750184  RH  033%=      5-min Rain = 0
KRO1 182244Z 15017KT 38/19 A2985 RMK A01 T03750185  RH  033%=      5-min Rain = 0
KRO1 182245Z 15019KT 38/18 A2985 RMK A01 T03750183  RH  033%=      5-min Rain = 0
KRO1 182246Z 15016KT 37/18 A2985 RMK A01 T03740184  RH  033%=      5-min Rain = 0
KRO1 182247Z 15015G20KT 37/18 A2985 RMK A01 T03740184  RH  033%=      5-min Rain = 0
KRO1 182248Z 16020G28KT 37/19 A2985 RMK A01 T03730185  RH  033%=      5-min Rain = 0
KRO1 182249Z 17021KT 38/18 A2985 RMK A01 T03750184  RH  033%=      5-min Rain = 0
KRO1 182250Z 17020KT 38/18 A2985 RMK A01 T03760181  RH  032%=      5-min Rain = 0
KRO1 182251Z 17018G24KT 38/18 A2985 RMK A01 T03750181  RH  032%=      5-min Rain = 0
KRO1 182252Z 17020KT 37/18 A2985 RMK A01 T03740183  RH  033%=      5-min Rain = 0
KRO1 182253Z 18018KT 37/18 A2985 RMK A01 T03740182  RH  032%=      5-min Rain = 0
KRO1 182254Z 19018KT 37/18 A2985 RMK A01 T03740183  RH  033%=      5-min Rain = 0
KRO1 182255Z 19016KT 37/18 A2985 RMK A01 T03730183  RH  033%=      5-min Rain = 0
KRO1 182256Z 17015KT 37/18 A2985 RMK A01 T03730184  RH  033%=      5-min Rain = 0
KRO1 182257Z 15020G25KT 37/18 A2985 RMK A01 T03740183  RH  033%=      5-min Rain = 0
KRO1 182258Z 16022KT 37/18 A2985 RMK A01 T03740181  RH  033%=      5-min Rain = 0
KRO1 182259Z 16021KT 37/18 A2985 RMK A01 T03720181  RH  033%=      5-min Rain = 0
KRO1 182300Z 17019KT 37/18 A2985 RMK A01 T03710183  RH  033%=      5-min Rain = 0
KRO1 182301Z 16019KT 37/18 A2985 RMK A01 T03720183  RH  033%=      5-min Rain = 0
KRO1 182302Z 17020G25KT 37/18 A2985 RMK A01 T03710182  RH  033%=      5-min Rain = 0
KRO1 182303Z 18018KT 37/18 A2985 RMK A01 T03710182  RH  033%=      5-min Rain = 0
KRO1 182304Z 16018KT 37/18 A2985 RMK A01 T03710183  RH  033%=      5-min Rain = 0
KRO1 182305Z 16016KT 37/18 A2985 RMK A01 T03720182  RH  033%=      5-min Rain = 0
KRO1 182306Z 17019KT 37/18 A2985 RMK A01 T03720183  RH  033%=      5-min Rain = 0
KRO1 182307Z 15017KT 37/18 A2985 RMK A01 T03720183  RH  033%=      5-min Rain = 0
KRO1 182308Z 16016KT 37/18 A2985 RMK A01 T03700182  RH  033%=      5-min Rain = 0
KRO1 182309Z 15018G23KT 37/18 A2985 RMK A01 T03700184  RH  034%=      5-min Rain = 0
KRO1 182310Z 16017KT 37/18 A2985 RMK A01 T03700184  RH  034%=      5-min Rain = 0
KRO1 182311Z 16019G25KT 37/19 A2985 RMK A01 T03720185  RH  033%=      5-min Rain = 0
KRO1 182312Z 17021KT 37/18 A2985 RMK A01 T03730181  RH  032%=      5-min Rain = 0
KRO1 182313Z 17020KT 37/18 A2985 RMK A01 T03730181  RH  033%=      5-min Rain = 0
KRO1 182314Z 18018KT 37/18 A2985 RMK A01 T03720181  RH  033%=      5-min Rain = 0
KRO1 182315Z 17014KT 37/18 A2985 RMK A01 T03730182  RH  033%=      5-min Rain = 0
KRO1 182316Z 16018KT 37/18 A2985 RMK A01 T03730182  RH  033%=      5-min Rain = 0
KRO1 182317Z 17017KT 37/18 A2985 RMK A01 T03730182  RH  033%=      5-min Rain = 0
KRO1 182318Z 17014KT 37/18 A2985 RMK A01 T03720181  RH  033%=      5-min Rain = 0
KRO1 182319Z 17018G24KT 37/18 A2985 RMK A01 T03720182  RH  033%=      5-min Rain = 0
KRO1 182320Z 16022KT 37/18 A2985 RMK A01 T03720181  RH  033%=      5-min Rain = 0
KRO1 182321Z 17016KT 37/18 A2985 RMK A01 T03700179  RH  033%=      5-min Rain = 0
KRO1 182322Z 17013KT 37/18 A2985 RMK A01 T03680181  RH  033%=      5-min Rain = 0
KRO1 182323Z 16014KT 37/18 A2985 RMK A01 T03690182  RH  033%=      5-min Rain = 0
KRO1 182324Z 16014KT 37/18 A2985 RMK A01 T03710184  RH  034%=      5-min Rain = 0
KRO1 182325Z 16014KT 37/18 A2985 RMK A01 T03720182  RH  033%=      5-min Rain = 0
KRO1 182326Z 15011KT 37/18 A2985 RMK A01 T03710184  RH  033%=      5-min Rain = 0
KRO1 182327Z 15015KT 37/18 A2985 RMK A01 T03710183  RH  033%=      5-min Rain = 0
KRO1 182328Z 15015KT 37/18 A2985 RMK A01 T03700183  RH  033%=      5-min Rain = 0
KRO1 182329Z 15014KT 37/18 A2984 RMK A01 T03710183  RH  033%=      5-min Rain = 0
KRO1 182330Z 15014G19KT 37/18 A2984 RMK A01 T03700182  RH  033%=      5-min Rain = 0
KRO1 182331Z 18016G21KT 37/18 A2984 RMK A01 T03700184  RH  034%=      5-min Rain = 0
KRO1 182332Z 16018KT 37/18 A2984 RMK A01 T03710184  RH  033%=      5-min Rain = 0
KRO1 182333Z 15019KT 37/18 A2984 RMK A01 T03720183  RH  033%=      5-min Rain = 0
KRO1 182334Z 15016KT 37/18 A2984 RMK A01 T03710182  RH  033%=      5-min Rain = 0
KRO1 182335Z 16014KT 37/18 A2984 RMK A01 T03700182  RH  033%=      5-min Rain = 0
KRO1 182336Z 16017KT 37/18 A2984 RMK A01 T03700182  RH  033%=      5-min Rain = 0
KRO1 182337Z 16017KT 37/18 A2984 RMK A01 T03700183  RH  033%=      5-min Rain = 0
KRO1 182338Z 17018G23KT 37/18 A2984 RMK A01 T03700183  RH  033%=      5-min Rain = 0
KRO1 182339Z 17019KT 37/18 A2984 RMK A01 T03700181  RH  033%=      5-min Rain = 0
KRO1 182340Z 15018KT 37/18 A2984 RMK A01 T03690181  RH  033%=      5-min Rain = 0
KRO1 182341Z 15016KT 37/18 A2984 RMK A01 T03690180  RH  033%=      5-min Rain = 0
KRO1 182342Z 15016G21KT 37/18 A2984 RMK A01 T03680181  RH  033%=      5-min Rain = 0
KRO1 182343Z 15017KT 37/18 A2984 RMK A01 T03680181  RH  033%=      5-min Rain = 0
KRO1 182344Z 16018KT 37/18 A2984 RMK A01 T03680180  RH  033%=      5-min Rain = 0
KRO1 182345Z 15018KT 37/18 A2984 RMK A01 T03670181  RH  033%=      5-min Rain = 0
KRO1 182346Z 15022G28KT 37/18 A2984 RMK A01 T03680181  RH  033%=      5-min Rain = 0
KRO1 182347Z 16020G26KT 37/18 A2984 RMK A01 T03670181  RH  033%=      5-min Rain = 0
KRO1 182348Z 16023KT 37/18 A2984 RMK A01 T03670179  RH  033%=      5-min Rain = 0
KRO1 182349Z 16021KT 37/18 A2984 RMK A01 T03660179  RH  033%=      5-min Rain = 0
KRO1 182350Z 17018KT 37/18 A2984 RMK A01 T03660180  RH  034%=      5-min Rain = 0
KRO1 182351Z 17017KT 37/18 A2984 RMK A01 T03660180  RH  034%=      5-min Rain = 0
KRO1 182352Z 16016KT 37/18 A2984 RMK A01 T03660182  RH  034%=      5-min Rain = 0
KRO1 182353Z 15017KT 37/18 A2984 RMK A01 T03660183  RH  034%=      5-min Rain = 0
KRO1 182354Z 16020KT 37/18 A2984 RMK A01 T03660182  RH  034%=      5-min Rain = 0
KRO1 182355Z 16018KT 37/18 A2984 RMK A01 T03650182  RH  034%=      5-min Rain = 0
KRO1 182356Z 15020KT 36/18 A2984 RMK A01 T03640182  RH  034%=      5-min Rain = 0
KRO1 182357Z 15018KT 37/18 A2984 RMK A01 T03650182  RH  034%=      5-min Rain = 0
KRO1 182358Z 17020KT 37/18 A2984 RMK A01 T03650181  RH  034%=      5-min Rain = 0
KRO1 182359Z 16018KT 36/18 A2984 RMK A01 T03630180  RH  034%=      5-min Rain = 0
KRO1 190000Z 15019KT 36/18 A2984 RMK A01 T03630181  RH  034%=      5-min Rain = 0
KRO1 190001Z 15018KT 36/18 A2984 RMK A01 T03630180  RH  034%=      5-min Rain = 0
KRO1 190002Z 16018KT 36/18 A2984 RMK A01 T03640179  RH  034%=      5-min Rain = 0
KRO1 190003Z 16017KT 36/18 A2984 RMK A01 T03640179  RH  034%=      5-min Rain = 0
KRO1 190004Z 16016KT 36/18 A2984 RMK A01 T03640180  RH  034%=      5-min Rain = 0
KRO1 190005Z 16018KT 36/18 A2984 RMK A01 T03640179  RH  034%=      5-min Rain = 0
KRO1 190006Z 16016KT 36/18 A2984 RMK A01 T03630179  RH  034%=      5-min Rain = 0
KRO1 190007Z 16016KT 36/18 A2984 RMK A01 T03630179  RH  034%=      5-min Rain = 0
KRO1 190008Z 16016KT 36/18 A2984 RMK A01 T03630180  RH  034%=      5-min Rain = 0
KRO1 190009Z 15016KT 36/18 A2984 RMK A01 T03630182  RH  035%=      5-min Rain = 0
KRO1 190010Z 16016KT 36/18 A2984 RMK A01 T03630183  RH  035%=      5-min Rain = 0
KRO1 190011Z 16017KT 36/18 A2984 RMK A01 T03630181  RH  034%=      5-min Rain = 0
KRO1 190012Z 16019KT 36/18 A2984 RMK A01 T03630180  RH  034%=      5-min Rain = 0
KRO1 190013Z 16017KT 36/18 A2984 RMK A01 T03630180  RH  034%=      5-min Rain = 0
KRO1 190014Z 16019KT 36/18 A2984 RMK A01 T03630180  RH  034%=      5-min Rain = 0
KRO1 190015Z 16019KT 36/18 A2984 RMK A01 T03630180  RH  034%=      5-min Rain = 0
KRO1 190016Z 17020KT 36/18 A2984 RMK A01 T03620180  RH  034%=      5-min Rain = 0
KRO1 190017Z 16019KT 36/18 A2984 RMK A01 T03630180  RH  034%=      5-min Rain = 0
KRO1 190018Z 16019KT 36/18 A2984 RMK A01 T03620180  RH  034%=      5-min Rain = 0
KRO1 190019Z 17017KT 36/18 A2984 RMK A01 T03610180  RH  034%=      5-min Rain = 0
KRO1 190020Z 16015KT 36/18 A2984 RMK A01 T03610180  RH  035%=      5-min Rain = 0
KRO1 190021Z 15016KT 36/18 A2984 RMK A01 T03610181  RH  035%=      5-min Rain = 0
KRO1 190022Z 15020KT 36/18 A2984 RMK A01 T03610181  RH  035%=      5-min Rain = 0
KRO1 190023Z 16018KT 36/18 A2984 RMK A01 T03610181  RH  035%=      5-min Rain = 0
KRO1 190024Z 15018G24KT 36/18 A2984 RMK A01 T03600181  RH  035%=      5-min Rain = 0
KRO1 190025Z 16018KT 36/18 A2984 RMK A01 T03600181  RH  035%=      5-min Rain = 0
KRO1 190026Z 16019KT 36/18 A2984 RMK A01 T03590181  RH  035%=      5-min Rain = 0
KRO1 190027Z 16019KT 36/18 A2984 RMK A01 T03590181  RH  035%=      5-min Rain = 0
KRO1 190028Z 15019KT 36/18 A2984 RMK A01 T03590182  RH  035%=      5-min Rain = 0
KRO1 190029Z 16016KT 36/18 A2984 RMK A01 T03590182  RH  035%=      5-min Rain = 0
KRO1 190030Z 16019KT 36/18 A2984 RMK A01 T03590182  RH  035%=      5-min Rain = 0
KRO1 190031Z 15019KT 36/18 A2984 RMK A01 T03580181  RH  035%=      5-min Rain = 0
KRO1 190032Z 14020KT 36/18 A2984 RMK A01 T03580181  RH  035%=      5-min Rain = 0
KRO1 190033Z 15019KT 36/18 A2984 RMK A01 T03570180  RH  035%=      5-min Rain = 0
KRO1 190034Z 16020KT 36/18 A2984 RMK A01 T03570181  RH  035%=      5-min Rain = 0
KRO1 190035Z 15020KT 36/18 A2984 RMK A01 T03570180  RH  035%=      5-min Rain = 0
KRO1 190036Z 15018KT 36/18 A2984 RMK A01 T03570180  RH  035%=      5-min Rain = 0
KRO1 190037Z 15019G25KT 36/18 A2984 RMK A01 T03570180  RH  035%=      5-min Rain = 0
KRO1 190038Z 15020KT 36/18 A2984 RMK A01 T03570179  RH  035%=      5-min Rain = 0
KRO1 190039Z 15020KT 36/18 A2984 RMK A01 T03570179  RH  035%=      5-min Rain = 0
KRO1 190040Z 15021KT 36/18 A2984 RMK A01 T03560178  RH  035%=      5-min Rain = 0
KRO1 190041Z 15018KT 36/18 A2984 RMK A01 T03560179  RH  035%=      5-min Rain = 0
KRO1 190042Z 15020G26KT 36/18 A2985 RMK A01 T03550179  RH  035%=      5-min Rain = 0
KRO1 190043Z 15022KT 36/18 A2985 RMK A01 T03550178  RH  035%=      5-min Rain = 0
KRO1 190044Z 16021KT 36/18 A2985 RMK A01 T03550178  RH  035%=      5-min Rain = 0
KRO1 190045Z 16021KT 35/18 A2985 RMK A01 T03540178  RH  035%=      5-min Rain = 0
KRO1 190046Z 15017KT 35/18 A2985 RMK A01 T03540178  RH  035%=      5-min Rain = 0
KRO1 190047Z 15018KT 35/18 A2985 RMK A01 T03540178  RH  035%=      5-min Rain = 0
KRO1 190048Z 15019KT 35/18 A2985 RMK A01 T03540178  RH  035%=      5-min Rain = 0
KRO1 190049Z 15019KT 35/18 A2985 RMK A01 T03530177  RH  035%=      5-min Rain = 0
KRO1 190050Z 16019KT 35/18 A2985 RMK A01 T03530177  RH  035%=      5-min Rain = 0
KRO1 190051Z 16019KT 35/18 A2985 RMK A01 T03530177  RH  035%=      5-min Rain = 0
KRO1 190052Z 16016KT 35/18 A2985 RMK A01 T03530177  RH  035%=      5-min Rain = 0
KRO1 190053Z 15018KT 35/18 A2985 RMK A01 T03530177  RH  035%=      5-min Rain = 0
KRO1 190054Z 15018KT 35/18 A2985 RMK A01 T03520176  RH  035%=      5-min Rain = 0
KRO1 190055Z 15019KT 35/18 A2985 RMK A01 T03520175  RH  035%=      5-min Rain = 0
KRO1 190056Z 15016KT 35/18 A2985 RMK A01 T03520175  RH  035%=      5-min Rain = 0
KRO1 190057Z 15020KT 35/18 A2985 RMK A01 T03510175  RH  035%=      5-min Rain = 0
KRO1 190058Z 15018KT 35/17 A2985 RMK A01 T03510174  RH  035%=      5-min Rain = 0
KRO1 190059Z 15016KT 35/18 A2985 RMK A01 T03510175  RH  035%=      5-min Rain = 0
KRO1 190100Z 15017KT 35/18 A2985 RMK A01 T03510175  RH  035%=      5-min Rain = 0
KRO1 190101Z 16017KT 35/18 A2985 RMK A01 T03500175  RH  035%=      5-min Rain = 0
KRO1 190102Z 15017KT 35/17 A2985 RMK A01 T03500174  RH  035%=      5-min Rain = 0
KRO1 190103Z 15016KT 35/17 A2985 RMK A01 T03500174  RH  035%=      5-min Rain = 0
KRO1 190104Z 15018KT 35/17 A2985 RMK A01 T03500174  RH  035%=      5-min Rain = 0
KRO1 190105Z 15017KT 35/17 A2985 RMK A01 T03490173  RH  035%=      5-min Rain = 0
KRO1 190106Z 15020KT 35/17 A2985 RMK A01 T03490173  RH  035%=      5-min Rain = 0
KRO1 190107Z 15019KT 35/17 A2985 RMK A01 T03490173  RH  035%=      5-min Rain = 0
KRO1 190108Z 15016KT 35/17 A2985 RMK A01 T03490173  RH  035%=      5-min Rain = 0
KRO1 190109Z 15017KT 35/17 A2985 RMK A01 T03490173  RH  035%=      5-min Rain = 0
KRO1 190110Z 15019KT 35/17 A2985 RMK A01 T03480173  RH  035%=      5-min Rain = 0
KRO1 190111Z 15017KT 35/17 A2985 RMK A01 T03480173  RH  035%=      5-min Rain = 0
KRO1 190112Z 15018KT 35/17 A2985 RMK A01 T03480173  RH  035%=      5-min Rain = 0
KRO1 190113Z 15016KT 35/17 A2985 RMK A01 T03480173  RH  036%=      5-min Rain = 0
KRO1 190114Z 16017KT 35/17 A2985 RMK A01 T03470173  RH  036%=      5-min Rain = 0
KRO1 190115Z 16015KT 35/17 A2985 RMK A01 T03470173  RH  036%=      5-min Rain = 0
KRO1 190116Z 16015KT 35/17 A2985 RMK A01 T03470173  RH  036%=      5-min Rain = 0
KRO1 190117Z 16019KT 35/17 A2985 RMK A01 T03460173  RH  036%=      5-min Rain = 0
KRO1 190118Z 16018KT 35/17 A2985 RMK A01 T03460173  RH  036%=      5-min Rain = 0
KRO1 190119Z 16019KT 35/17 A2985 RMK A01 T03470173  RH  036%=      5-min Rain = 0
KRO1 190120Z 16016KT 35/17 A2985 RMK A01 T03460173  RH  036%=      5-min Rain = 0
KRO1 190121Z 15014KT 35/17 A2985 RMK A01 T03460173  RH  036%=      5-min Rain = 0
KRO1 190122Z 16014G20KT 35/17 A2985 RMK A01 T03460174  RH  036%=      5-min Rain = 0
KRO1 190123Z 15017KT 35/17 A2985 RMK A01 T03450174  RH  036%=      5-min Rain = 0
KRO1 190124Z 15017KT 34/17 A2985 RMK A01 T03440174  RH  036%=      5-min Rain = 0
KRO1 190125Z 15016KT 34/18 A2985 RMK A01 T03440175  RH  037%=      5-min Rain = 0
KRO1 190126Z 15013KT 34/18 A2985 RMK A01 T03440176  RH  037%=      5-min Rain = 0
KRO1 190127Z 15015KT 34/18 A2985 RMK A01 T03430176  RH  037%=      5-min Rain = 0
KRO1 190128Z 15015KT 34/18 A2985 RMK A01 T03430176  RH  037%=      5-min Rain = 0
KRO1 190129Z 15016KT 34/18 A2985 RMK A01 T03420176  RH  037%=      5-min Rain = 0
KRO1 190130Z 16015KT 34/18 A2985 RMK A01 T03420176  RH  037%=      5-min Rain = 0
KRO1 190131Z 15014G19KT 34/18 A2985 RMK A01 T03420177  RH  038%=      5-min Rain = 0
KRO1 190132Z 15017KT 34/18 A2985 RMK A01 T03410177  RH  038%=      5-min Rain = 0
KRO1 190133Z 15014KT 34/18 A2985 RMK A01 T03410178  RH  038%=      5-min Rain = 0
KRO1 190134Z 16014KT 34/18 A2985 RMK A01 T03410178  RH  038%=      5-min Rain = 0
KRO1 190135Z 16016KT 34/18 A2985 RMK A01 T03400178  RH  038%=      5-min Rain = 0
KRO1 190136Z 16015KT 34/18 A2985 RMK A01 T03400178  RH  038%=      5-min Rain = 0
KRO1 190137Z 15015KT 34/18 A2985 RMK A01 T03400179  RH  038%=      5-min Rain = 0
KRO1 190138Z 15016KT 34/18 A2985 RMK A01 T03390179  RH  039%=      5-min Rain = 0
KRO1 190139Z 15015KT 34/18 A2985 RMK A01 T03390178  RH  039%=      5-min Rain = 0
KRO1 190140Z 15015KT 34/18 A2985 RMK A01 T03390178  RH  039%=      5-min Rain = 0
KRO1 190141Z 16017KT 34/18 A2985 RMK A01 T03390177  RH  038%=      5-min Rain = 0
KRO1 190142Z 16014KT 34/18 A2985 RMK A01 T03380176  RH  038%=      5-min Rain = 0
KRO1 190143Z 16015KT 34/18 A2985 RMK A01 T03380176  RH  038%=      5-min Rain = 0
KRO1 190144Z 16017KT 34/18 A2985 RMK A01 T03380175  RH  038%=      5-min Rain = 0
KRO1 190145Z 16016KT 34/17 A2985 RMK A01 T03380174  RH  038%=      5-min Rain = 0
KRO1 190146Z 16017KT 34/17 A2985 RMK A01 T03380173  RH  037%=      5-min Rain = 0
KRO1 190147Z 16015KT 34/17 A2985 RMK A01 T03390172  RH  037%=      5-min Rain = 0
KRO1 190148Z 16015KT 34/17 A2985 RMK A01 T03380172  RH  037%=      5-min Rain = 0
KRO1 190149Z 16014KT 34/17 A2985 RMK A01 T03380172  RH  037%=      5-min Rain = 0
KRO1 190150Z 16015KT 34/17 A2985 RMK A01 T03370173  RH  038%=      5-min Rain = 0
KRO1 190151Z 16016KT 34/17 A2985 RMK A01 T03360171  RH  037%=      5-min Rain = 0
KRO1 190152Z 15014KT 34/17 A2985 RMK A01 T03370171  RH  037%=      5-min Rain = 0
KRO1 190153Z 16014KT 34/17 A2985 RMK A01 T03370171  RH  037%=      5-min Rain = 0
KRO1 190154Z 16012KT 34/17 A2985 RMK A01 T03360171  RH  037%=      5-min Rain = 0
KRO1 190155Z 16013KT 34/17 A2985 RMK A01 T03350171  RH  038%=      5-min Rain = 0
KRO1 190156Z 15012KT 34/17 A2985 RMK A01 T03350171  RH  038%=      5-min Rain = 0
KRO1 190157Z 16013KT 33/17 A2985 RMK A01 T03340172  RH  038%=      5-min Rain = 0
KRO1 190158Z 15013KT 33/17 A2985 RMK A01 T03330172  RH  038%=      5-min Rain = 0
KRO1 190159Z 15012KT 33/17 A2986 RMK A01 T03330172  RH  038%=      5-min Rain = 0
KRO1 190200Z 15012KT 33/17 A2986 RMK A01 T03330172  RH  038%=      5-min Rain = 0
KRO1 190201Z 15012KT 33/17 A2986 RMK A01 T03330172  RH  038%=      5-min Rain = 0
KRO1 190202Z 15012KT 33/17 A2986 RMK A01 T03320173  RH  039%=      5-min Rain = 0
KRO1 190203Z 15014KT 33/17 A2986 RMK A01 T03320172  RH  039%=      5-min Rain = 0
KRO1 190204Z 15011KT 33/17 A2986 RMK A01 T03320173  RH  039%=      5-min Rain = 0
KRO1 190205Z 15012KT 33/17 A2986 RMK A01 T03310173  RH  039%=      5-min Rain = 0
KRO1 190206Z 15011KT 33/17 A2986 RMK A01 T03300174  RH  039%=      5-min Rain = 0
KRO1 190207Z 15010KT 33/17 A2986 RMK A01 T03300174  RH  040%=      5-min Rain = 0
KRO1 190208Z 15011KT 33/18 A2986 RMK A01 T03290175  RH  040%=      5-min Rain = 0
KRO1 190209Z 15011KT 33/18 A2986 RMK A01 T03290177  RH  041%=      5-min Rain = 0
KRO1 190210Z 15010KT 33/18 A2986 RMK A01 T03280179  RH  041%=      5-min Rain = 0
KRO1 190211Z 15011KT 33/18 A2986 RMK A01 T03270180  RH  042%=      5-min Rain = 0
KRO1 190212Z 15011KT 33/18 A2986 RMK A01 T03270181  RH  042%=      5-min Rain = 0
KRO1 190213Z 15011KT 33/18 A2986 RMK A01 T03260182  RH  042%=      5-min Rain = 0
KRO1 190214Z 15012KT 33/18 A2986 RMK A01 T03260183  RH  043%=      5-min Rain = 0
KRO1 190215Z 15013KT 33/18 A2986 RMK A01 T03260184  RH  043%=      5-min Rain = 0
KRO1 190216Z 15012KT 33/19 A2986 RMK A01 T03260185  RH  043%=      5-min Rain = 0
KRO1 190217Z 15013KT 33/19 A2986 RMK A01 T03260185  RH  043%=      5-min Rain = 0
KRO1 190218Z 15013KT 33/19 A2986 RMK A01 T03260185  RH  043%=      5-min Rain = 0
KRO1 190219Z 15013KT 33/19 A2986 RMK A01 T03260185  RH  043%=      5-min Rain = 0
KRO1 190220Z 15012KT 33/19 A2986 RMK A01 T03260186  RH  043%=      5-min Rain = 0
KRO1 190221Z 15011KT 33/19 A2986 RMK A01 T03260186  RH  043%=      5-min Rain = 0
KRO1 190222Z 15012KT 33/19 A2986 RMK A01 T03260186  RH  044%=      5-min Rain = 0
KRO1 190223Z 15013KT 33/19 A2986 RMK A01 T03250186  RH  044%=      5-min Rain = 0
KRO1 190224Z 15014KT 33/19 A2986 RMK A01 T03250186  RH  044%=      5-min Rain = 0
KRO1 190225Z 15013KT 33/19 A2986 RMK A01 T03250186  RH  044%=      5-min Rain = 0
KRO1 190226Z 15012KT 33/19 A2986 RMK A01 T03250186  RH  044%=      5-min Rain = 0
KRO1 190227Z 15013KT 33/19 A2986 RMK A01 T03250186  RH  044%=      5-min Rain = 0
KRO1 190228Z 15013KT 33/19 A2986 RMK A01 T03250185  RH  044%=      5-min Rain = 0
KRO1 190229Z 15013KT 33/19 A2986 RMK A01 T03250185  RH  044%=      5-min Rain = 0
KRO1 190230Z 15011KT 33/19 A2986 RMK A01 T03250185  RH  044%=      5-min Rain = 0
KRO1 190231Z 15014KT 32/19 A2986 RMK A01 T03240185  RH  044%=      5-min Rain = 0
KRO1 190232Z 15014KT 32/18 A2986 RMK A01 T03240184  RH  044%=      5-min Rain = 0
KRO1 190233Z 15014KT 32/18 A2986 RMK A01 T03240184  RH  044%=      5-min Rain = 0
KRO1 190234Z 15015KT 32/18 A2986 RMK A01 T03240184  RH  043%=      5-min Rain = 0
KRO1 190235Z 15013KT 32/18 A2986 RMK A01 T03240184  RH  043%=      5-min Rain = 0
KRO1 190236Z 15014KT 32/18 A2986 RMK A01 T03240184  RH  044%=      5-min Rain = 0
KRO1 190237Z 15014KT 32/18 A2986 RMK A01 T03240184  RH  044%=      5-min Rain = 0
KRO1 190238Z 15017KT 32/18 A2986 RMK A01 T03230184  RH  044%=      5-min Rain = 0
KRO1 190239Z 15014KT 32/18 A2986 RMK A01 T03230183  RH  043%=      5-min Rain = 0
KRO1 190240Z 15015KT 32/18 A2986 RMK A01 T03240184  RH  043%=      5-min Rain = 0
KRO1 190241Z 16014KT 32/18 A2987 RMK A01 T03240183  RH  043%=      5-min Rain = 0
KRO1 190242Z 15015KT 32/18 A2987 RMK A01 T03230183  RH  043%=      5-min Rain = 0
KRO1 190243Z 15016KT 32/18 A2987 RMK A01 T03240184  RH  043%=      5-min Rain = 0
KRO1 190244Z 16014KT 32/18 A2987 RMK A01 T03230183  RH  043%=      5-min Rain = 0
KRO1 190245Z 15014KT 32/18 A2987 RMK A01 T03230183  RH  043%=      5-min Rain = 0
KRO1 190246Z 15015KT 32/18 A2987 RMK A01 T03230183  RH  043%=      5-min Rain = 0
KRO1 190247Z 15013KT 32/18 A2987 RMK A01 T03230183  RH  044%=      5-min Rain = 0
KRO1 190248Z 15015KT 32/18 A2987 RMK A01 T03230183  RH  044%=      5-min Rain = 0
KRO1 190249Z 15015KT 32/18 A2987 RMK A01 T03220183  RH  044%=      5-min Rain = 0
KRO1 190250Z 15014KT 32/18 A2987 RMK A01 T03220183  RH  044%=      5-min Rain = 0
KRO1 190251Z 15015KT 32/18 A2987 RMK A01 T03220183  RH  044%=      5-min Rain = 0
KRO1 190252Z 15013KT 32/18 A2987 RMK A01 T03220183  RH  044%=      5-min Rain = 0
KRO1 190253Z 15013KT 32/18 A2987 RMK A01 T03210183  RH  044%=      5-min Rain = 0
KRO1 190254Z 15014KT 32/18 A2987 RMK A01 T03210183  RH  044%=      5-min Rain = 0
KRO1 190255Z 15014KT 32/18 A2987 RMK A01 T03200183  RH  044%=      5-min Rain = 0
KRO1 190256Z 15013KT 32/18 A2987 RMK A01 T03200183  RH  044%=      5-min Rain = 0
KRO1 190257Z 15013KT 32/18 A2987 RMK A01 T03200183  RH  044%=      5-min Rain = 0
KRO1 190258Z 15013KT 32/18 A2987 RMK A01 T03200183  RH  044%=      5-min Rain = 0
KRO1 190259Z 15013KT 32/18 A2987 RMK A01 T03190183  RH  044%=      5-min Rain = 0
KRO1 190300Z 15011KT 32/18 A2987 RMK A01 T03190183  RH  044%=      5-min Rain = 0
KRO1 190301Z 15012KT 32/18 A2987 RMK A01 T03180183  RH  045%=      5-min Rain = 0
KRO1 190302Z 15013KT 32/18 A2987 RMK A01 T03180183  RH  045%=      5-min Rain = 0
KRO1 190303Z 15014KT 32/18 A2987 RMK A01 T03180183  RH  045%=      5-min Rain = 0
KRO1 190304Z 15013KT 32/18 A2987 RMK A01 T03170182  RH  045%=      5-min Rain = 0
KRO1 190305Z 15014KT 32/18 A2987 RMK A01 T03170183  RH  045%=      5-min Rain = 0
KRO1 190306Z 15012KT 32/18 A2987 RMK A01 T03170183  RH  045%=      5-min Rain = 0
KRO1 190307Z 15011KT 32/18 A2987 RMK A01 T03170183  RH  045%=      5-min Rain = 0
KRO1 190308Z 15011KT 32/18 A2987 RMK A01 T03160183  RH  045%=      5-min Rain = 0
KRO1 190309Z 15014KT 32/18 A2987 RMK A01 T03160183  RH  045%=      5-min Rain = 0
KRO1 190310Z 15013KT 32/18 A2987 RMK A01 T03160182  RH  045%=      5-min Rain = 0
KRO1 190311Z 15013KT 32/18 A2987 RMK A01 T03150182  RH  045%=      5-min Rain = 0
KRO1 190312Z 15013KT 32/18 A2987 RMK A01 T03160182  RH  045%=      5-min Rain = 0
KRO1 190313Z 15014KT 32/18 A2987 RMK A01 T03160181  RH  045%=      5-min Rain = 0
KRO1 190314Z 15012KT 32/18 A2987 RMK A01 T03160182  RH  045%=      5-min Rain = 0
KRO1 190315Z 15012KT 32/18 A2987 RMK A01 T03150182  RH  045%=      5-min Rain = 0
KRO1 190316Z 15013KT 32/18 A2988 RMK A01 T03150181  RH  045%=      5-min Rain = 0
KRO1 190317Z 16012KT 32/18 A2988 RMK A01 T03150181  RH  045%=      5-min Rain = 0
KRO1 190318Z 16012KT 32/18 A2988 RMK A01 T03150181  RH  045%=      5-min Rain = 0
KRO1 190319Z 15013KT 31/18 A2988 RMK A01 T03140181  RH  045%=      5-min Rain = 0
KRO1 190320Z 15014KT 31/18 A2988 RMK A01 T03140180  RH  045%=      5-min Rain = 0
KRO1 190321Z 16014KT 31/18 A2988 RMK A01 T03140180  RH  045%=      5-min Rain = 0
KRO1 190322Z 15013KT 31/18 A2988 RMK A01 T03140179  RH  045%=      5-min Rain = 0
KRO1 190323Z 16015KT 31/18 A2988 RMK A01 T03140179  RH  044%=      5-min Rain = 0
KRO1 190324Z 15014KT 31/18 A2988 RMK A01 T03140177  RH  044%=      5-min Rain = 0
KRO1 190325Z 15014KT 32/18 A2988 RMK A01 T03150178  RH  044%=      5-min Rain = 0
KRO1 190326Z 15014KT 32/18 A2988 RMK A01 T03150178  RH  044%=      5-min Rain = 0
KRO1 190327Z 16015KT 31/18 A2988 RMK A01 T03140177  RH  044%=      5-min Rain = 0
KRO1 190328Z 15014KT 31/18 A2988 RMK A01 T03140177  RH  044%=      5-min Rain = 0
KRO1 190329Z 15016KT 31/18 A2988 RMK A01 T03140176  RH  044%=      5-min Rain = 0
KRO1 190330Z 16014KT 31/18 A2988 RMK A01 T03140175  RH  044%=      5-min Rain = 0
KRO1 190331Z 15015KT 31/18 A2988 RMK A01 T03140175  RH  044%=      5-min Rain = 0
KRO1 190332Z 15016KT 31/18 A2988 RMK A01 T03140175  RH  043%=      5-min Rain = 0
KRO1 190333Z 15013KT 31/17 A2988 RMK A01 T03140174  RH  043%=      5-min Rain = 0
KRO1 190334Z 15012KT 31/17 A2988 RMK A01 T03140174  RH  043%=      5-min Rain = 0
KRO1 190335Z 15015KT 31/17 A2988 RMK A01 T03130174  RH  043%=      5-min Rain = 0
KRO1 190336Z 15014KT 31/17 A2989 RMK A01 T03130174  RH  043%=      5-min Rain = 0
KRO1 190337Z 15013KT 31/17 A2989 RMK A01 T03130173  RH  043%=      5-min Rain = 0
KRO1 190338Z 15012KT 31/17 A2989 RMK A01 T03130173  RH  043%=      5-min Rain = 0
KRO1 190339Z 16015KT 31/17 A2989 RMK A01 T03130173  RH  043%=      5-min Rain = 0
KRO1 190340Z 15015KT 31/17 A2989 RMK A01 T03130172  RH  043%=      5-min Rain = 0
KRO1 190341Z 16015KT 31/17 A2989 RMK A01 T03130171  RH  043%=      5-min Rain = 0
KRO1 190342Z 15016KT 31/17 A2989 RMK A01 T03130171  RH  043%=      5-min Rain = 0
KRO1 190343Z 16014KT 31/17 A2989 RMK A01 T03140171  RH  042%=      5-min Rain = 0
KRO1 190344Z 15016KT 31/17 A2989 RMK A01 T03140171  RH  042%=      5-min Rain = 0
KRO1 190345Z 16014KT 31/17 A2989 RMK A01 T03130171  RH  042%=      5-min Rain = 0
KRO1 190346Z 15015KT 31/17 A2989 RMK A01 T03130171  RH  043%=      5-min Rain = 0
KRO1 190347Z 15015KT 31/17 A2989 RMK A01 T03130170  RH  043%=      5-min Rain = 0
KRO1 190348Z 16014KT 31/17 A2989 RMK A01 T03120169  RH  042%=      5-min Rain = 0
KRO1 190349Z 16015KT 31/17 A2989 RMK A01 T03130169  RH  042%=      5-min Rain = 0
KRO1 190350Z 16013KT 31/17 A2989 RMK A01 T03120169  RH  042%=      5-min Rain = 0
KRO1 190351Z 16014KT 31/17 A2989 RMK A01 T03120169  RH  042%=      5-min Rain = 0
KRO1 190352Z 16013KT 31/17 A2989 RMK A01 T03120169  RH  042%=      5-min Rain = 0
KRO1 190353Z 16013KT 31/17 A2989 RMK A01 T03120169  RH  042%=      5-min Rain = 0
KRO1 190354Z 16013KT 31/17 A2989 RMK A01 T03110169  RH  042%=      5-min Rain = 0
KRO1 190355Z 16015KT 31/17 A2989 RMK A01 T03110167  RH  042%=      5-min Rain = 0
KRO1 190356Z 16016KT 31/17 A2989 RMK A01 T03110167  RH  042%=      5-min Rain = 0
KRO1 190357Z 16013KT 31/17 A2989 RMK A01 T03110167  RH  042%=      5-min Rain = 0
KRO1 190358Z 16014KT 31/17 A299 RMK A01 T03120167  RH  042%=      5-min Rain = 0
KRO1 190359Z 16014KT 31/17 A299 RMK A01 T03120166  RH  042%=      5-min Rain = 0
KRO1 190400Z 16014KT 31/17 A299 RMK A01 T03120166  RH  042%=      5-min Rain = 0
KRO1 190401Z 16012KT 31/17 A299 RMK A01 T03110166  RH  042%=      5-min Rain = 0
KRO1 190402Z 16011KT 31/17 A299 RMK A01 T03120166  RH  042%=      5-min Rain = 0
KRO1 190403Z 16014KT 31/17 A299 RMK A01 T03110166  RH  042%=      5-min Rain = 0
KRO1 190404Z 16013KT 31/17 A299 RMK A01 T03110165  RH  042%=      5-min Rain = 0
KRO1 190405Z 16013KT 31/17 A299 RMK A01 T03110165  RH  042%=      5-min Rain = 0
KRO1 190406Z 16013KT 31/17 A299 RMK A01 T03110165  RH  042%=      5-min Rain = 0
KRO1 190407Z 16013KT 31/17 A299 RMK A01 T03100165  RH  042%=      5-min Rain = 0
KRO1 190408Z 16015KT 31/16 A299 RMK A01 T03100164  RH  042%=      5-min Rain = 0
KRO1 190409Z 16015KT 31/16 A299 RMK A01 T03100163  RH  041%=      5-min Rain = 0
KRO1 190410Z 16016KT 31/16 A299 RMK A01 T03100162  RH  041%=      5-min Rain = 0
KRO1 190411Z 16016KT 31/16 A299 RMK A01 T03110162  RH  041%=      5-min Rain = 0
KRO1 190412Z 16015KT 31/16 A299 RMK A01 T03110162  RH  041%=      5-min Rain = 0
KRO1 190413Z 16014KT 31/16 A299 RMK A01 T03110162  RH  041%=      5-min Rain = 0
KRO1 190414Z 16013KT 31/16 A299 RMK A01 T03110162  RH  041%=      5-min Rain = 0
KRO1 190415Z 16014KT 31/16 A299 RMK A01 T03100162  RH  041%=      5-min Rain = 0
KRO1 190416Z 16014KT 31/16 A299 RMK A01 T03110161  RH  041%=      5-min Rain = 0
KRO1 190417Z 16014KT 31/16 A299 RMK A01 T03100161  RH  041%=      5-min Rain = 0
KRO1 190418Z 16014KT 31/16 A299 RMK A01 T03100161  RH  041%=      5-min Rain = 0
KRO1 190419Z 16015KT 31/16 A299 RMK A01 T03100161  RH  041%=      5-min Rain = 0
KRO1 190420Z 16015KT 31/16 A299 RMK A01 T03100161  RH  041%=      5-min Rain = 0
KRO1 190421Z 16015KT 31/16 A299 RMK A01 T03100160  RH  040%=      5-min Rain = 0
KRO1 190422Z 16016KT 31/16 A299 RMK A01 T03100160  RH  040%=      5-min Rain = 0
KRO1 190423Z 16015KT 31/16 A299 RMK A01 T03100160  RH  040%=      5-min Rain = 0
KRO1 190424Z 16013KT 31/16 A299 RMK A01 T03100159  RH  040%=      5-min Rain = 0
KRO1 190425Z 16016KT 31/16 A299 RMK A01 T03100160  RH  040%=      5-min Rain = 0
KRO1 190426Z 16014KT 31/16 A299 RMK A01 T03100159  RH  040%=      5-min Rain = 0
KRO1 190427Z 16014KT 31/16 A299 RMK A01 T03100159  RH  040%=      5-min Rain = 0
KRO1 190428Z 16015KT 31/16 A299 RMK A01 T03090158  RH  040%=      5-min Rain = 0
KRO1 190429Z 16015KT 31/16 A299 RMK A01 T03090158  RH  040%=      5-min Rain = 0
KRO1 190430Z 16013KT 31/16 A299 RMK A01 T03090158  RH  040%=      5-min Rain = 0
KRO1 190431Z 16016KT 31/16 A299 RMK A01 T03090158  RH  040%=      5-min Rain = 0
KRO1 190432Z 16013KT 31/16 A299 RMK A01 T03090157  RH  040%=      5-min Rain = 0
KRO1 190433Z 16014KT 31/16 A299 RMK A01 T03090158  RH  040%=      5-min Rain = 0
KRO1 190434Z 16013KT 31/16 A299 RMK A01 T03080157  RH  040%=      5-min Rain = 0
KRO1 190435Z 16014KT 31/16 A299 RMK A01 T03080157  RH  040%=      5-min Rain = 0
KRO1 190436Z 16013KT 31/16 A299 RMK A01 T03080157  RH  040%=      5-min Rain = 0
KRO1 190437Z 16014KT 31/16 A299 RMK A01 T03080157  RH  040%=      5-min Rain = 0
KRO1 190438Z 16016KT 31/16 A299 RMK A01 T03080156  RH  040%=      5-min Rain = 0
KRO1 190439Z 16014KT 31/16 A299 RMK A01 T03080155  RH  040%=      5-min Rain = 0
KRO1 190440Z 16013KT 31/16 A299 RMK A01 T03080155  RH  040%=      5-min Rain = 0
KRO1 190441Z 16013KT 31/16 A299 RMK A01 T03080156  RH  040%=      5-min Rain = 0
KRO1 190442Z 16016KT 31/16 A299 RMK A01 T03070155  RH  040%=      5-min Rain = 0
KRO1 190443Z 16012KT 31/16 A299 RMK A01 T03080155  RH  040%=      5-min Rain = 0
KRO1 190444Z 16014KT 31/16 A299 RMK A01 T03070155  RH  040%=      5-min Rain = 0
KRO1 190445Z 16014KT 31/15 A2991 RMK A01 T03070154  RH  040%=      5-min Rain = 0
KRO1 190446Z 16014KT 31/15 A2991 RMK A01 T03070154  RH  040%=      5-min Rain = 0
KRO1 190447Z 16014KT 31/15 A2991 RMK A01 T03070154  RH  040%=      5-min Rain = 0
KRO1 190448Z 17015KT 31/15 A2991 RMK A01 T03070153  RH  039%=      5-min Rain = 0
KRO1 190449Z 16013KT 31/15 A2991 RMK A01 T03070153  RH  039%=      5-min Rain = 0
KRO1 190450Z 16013KT 31/15 A2991 RMK A01 T03070153  RH  039%=      5-min Rain = 0
KRO1 190451Z 16013KT 31/15 A2991 RMK A01 T03060153  RH  040%=      5-min Rain = 0
KRO1 190452Z 17013KT 31/15 A2991 RMK A01 T03050153  RH  040%=      5-min Rain = 0
KRO1 190453Z 17013KT 31/15 A2991 RMK A01 T03050153  RH  040%=      5-min Rain = 0
KRO1 190454Z 16013KT 31/15 A2991 RMK A01 T03050153  RH  040%=      5-min Rain = 0
KRO1 190455Z 17011KT 30/15 A2991 RMK A01 T03040153  RH  040%=      5-min Rain = 0
KRO1 190456Z 17013KT 30/15 A2991 RMK A01 T03040153  RH  040%=      5-min Rain = 0
KRO1 190457Z 16013KT 30/15 A2991 RMK A01 T03030152  RH  040%=      5-min Rain = 0
KRO1 190458Z 16013KT 30/15 A2991 RMK A01 T03030152  RH  040%=      5-min Rain = 0
KRO1 190459Z 17013KT 30/15 A2991 RMK A01 T03030151  RH  040%=      5-min Rain = 0

Page generated in 0.0786 seconds.